Observation data for Fort Lancaster on 02/15/2017      Previous  Date  Next       Current Mesonet Observations  Soil Data  Daily Summary Page  Observations in Plain Language
KLA1 150600Z 33006KT 06/00 A3023 RMK A01 T00630002  RH  065%=      5-min Rain = 0
KLA1 150601Z 33006KT 06/00 A3023 RMK A01 T00630003  RH  065%=      5-min Rain = 0
KLA1 150602Z 33007KT 06/00 A3023 RMK A01 T00630003  RH  065%=      5-min Rain = 0
KLA1 150603Z 33007KT 06/00 A3023 RMK A01 T00630003  RH  065%=      5-min Rain = 0
KLA1 150604Z 33007KT 06/00 A3023 RMK A01 T00630002  RH  065%=      5-min Rain = 0
KLA1 150605Z 33008KT 06/00 A3023 RMK A01 T00630001  RH  064%=      5-min Rain = 0
KLA1 150606Z 32008KT 06/00 A3023 RMK A01 T00630000  RH  064%=      5-min Rain = 0
KLA1 150607Z 33009KT 06/00 A3023 RMK A01 T00630001  RH  064%=      5-min Rain = 0
KLA1 150608Z 33006KT 06/00 A3023 RMK A01 T006300-0  RH  064%=      5-min Rain = 0
KLA1 150609Z 33006KT 06/00 A3023 RMK A01 T00630000  RH  064%=      5-min Rain = 0
KLA1 150610Z 33006KT 06/00 A3023 RMK A01 T00630000  RH  064%=      5-min Rain = 0
KLA1 150611Z 33005KT 06/M00 A3023 RMK A01 T00621001  RH  064%=      5-min Rain = 0
KLA1 150612Z 33005KT 06/M00 A3023 RMK A01 T00621001  RH  064%=      5-min Rain = 0
KLA1 150613Z 33006KT 06/M00 A3023 RMK A01 T00621001  RH  064%=      5-min Rain = 0
KLA1 150614Z 33006KT 06/00 A3023 RMK A01 T006200-0  RH  064%=      5-min Rain = 0
KLA1 150615Z 33006KT 06/00 A3023 RMK A01 T00620000  RH  065%=      5-min Rain = 0
KLA1 150616Z 33006KT 06/00 A3023 RMK A01 T006200-0  RH  065%=      5-min Rain = 0
KLA1 150617Z 35007KT 06/M00 A3023 RMK A01 T00611001  RH  064%=      5-min Rain = 0
KLA1 150618Z 33006KT 06/M00 A3023 RMK A01 T00611001  RH  064%=      5-min Rain = 0
KLA1 150619Z 33008KT 06/M00 A3023 RMK A01 T00611001  RH  064%=      5-min Rain = 0
KLA1 150620Z 34008KT 06/M00 A3023 RMK A01 T00611002  RH  064%=      5-min Rain = 0
KLA1 150621Z 35008KT 06/M00 A3023 RMK A01 T00611002  RH  064%=      5-min Rain = 0
KLA1 150622Z 33007KT 06/M00 A3023 RMK A01 T00601002  RH  064%=      5-min Rain = 0
KLA1 150623Z 33007KT 06/M00 A3023 RMK A01 T00601002  RH  064%=      5-min Rain = 0
KLA1 150624Z 33007KT 06/M00 A3023 RMK A01 T00601002  RH  065%=      5-min Rain = 0
KLA1 150625Z 33007G13KT 06/M00 A3023 RMK A01 T00591003  RH  064%=      5-min Rain = 0
KLA1 150626Z 33010KT 06/M00 A3023 RMK A01 T00601003  RH  064%=      5-min Rain = 0
KLA1 150627Z 34007KT 06/M00 A3023 RMK A01 T00601004  RH  064%=      5-min Rain = 0
KLA1 150628Z 32008KT 06/M00 A3023 RMK A01 T00601004  RH  064%=      5-min Rain = 0
KLA1 150629Z 33006KT 06/M00 A3023 RMK A01 T00601004  RH  064%=      5-min Rain = 0
KLA1 150630Z 34005KT 06/M00 A3023 RMK A01 T00591003  RH  064%=      5-min Rain = 0
KLA1 150631Z 34005KT 06/M00 A3023 RMK A01 T00591003  RH  064%=      5-min Rain = 0
KLA1 150632Z 33006KT 06/M00 A3023 RMK A01 T00581004  RH  064%=      5-min Rain = 0
KLA1 150633Z 35006KT 06/M00 A3023 RMK A01 T00581003  RH  065%=      5-min Rain = 0
KLA1 150634Z 34007KT 06/M00 A3023 RMK A01 T00581003  RH  065%=      5-min Rain = 0
KLA1 150635Z 34006KT 06/M00 A3023 RMK A01 T00581004  RH  064%=      5-min Rain = 0
KLA1 150636Z 35009KT 06/M00 A3023 RMK A01 T00581004  RH  064%=      5-min Rain = 0
KLA1 150637Z 34007KT 06/M01 A3023 RMK A01 T00581005  RH  064%=      5-min Rain = 0
KLA1 150638Z 33005KT 06/M01 A3023 RMK A01 T00581005  RH  064%=      5-min Rain = 0
KLA1 150639Z 35004KT 06/M00 A3023 RMK A01 T00581004  RH  064%=      5-min Rain = 0
KLA1 150640Z 33006KT 06/M00 A3023 RMK A01 T00581004  RH  065%=      5-min Rain = 0
KLA1 150641Z 33007KT 06/M00 A3023 RMK A01 T00581004  RH  064%=      5-min Rain = 0
KLA1 150642Z 34006KT 06/M00 A3023 RMK A01 T00571004  RH  065%=      5-min Rain = 0
KLA1 150643Z 33005KT 06/M00 A3023 RMK A01 T00571004  RH  065%=      5-min Rain = 0
KLA1 150644Z 32007KT 06/M00 A3023 RMK A01 T00581004  RH  065%=      5-min Rain = 0
KLA1 150645Z 33004KT 06/M00 A3023 RMK A01 T00571004  RH  065%=      5-min Rain = 0
KLA1 150646Z 32006KT 06/M00 A3023 RMK A01 T00571004  RH  065%=      5-min Rain = 0
KLA1 150647Z 33005KT 06/M00 A3023 RMK A01 T00561004  RH  065%=      5-min Rain = 0
KLA1 150648Z 32006KT 06/M00 A3023 RMK A01 T00561003  RH  065%=      5-min Rain = 0
KLA1 150649Z 32006KT 06/M00 A3023 RMK A01 T00561004  RH  066%=      5-min Rain = 0
KLA1 150650Z 32006KT 06/M00 A3023 RMK A01 T00551004  RH  066%=      5-min Rain = 0
KLA1 150651Z 32006KT 06/M00 A3023 RMK A01 T00551003  RH  066%=      5-min Rain = 0
KLA1 150652Z 33006KT 06/M00 A3023 RMK A01 T00551004  RH  066%=      5-min Rain = 0
KLA1 150653Z 33005KT 06/M00 A3023 RMK A01 T00551004  RH  066%=      5-min Rain = 0
KLA1 150654Z 32005KT 06/M00 A3023 RMK A01 T00551004  RH  066%=      5-min Rain = 0
KLA1 150655Z 33005KT 06/M00 A3023 RMK A01 T00551003  RH  066%=      5-min Rain = 0
KLA1 150656Z 32006KT 06/M00 A3023 RMK A01 T00551003  RH  066%=      5-min Rain = 0
KLA1 150657Z 33006KT 05/M00 A3023 RMK A01 T00541003  RH  066%=      5-min Rain = 0
KLA1 150658Z 32005KT 05/M00 A3023 RMK A01 T00541003  RH  067%=      5-min Rain = 0
KLA1 150659Z 32005KT 05/M00 A3023 RMK A01 T00541003  RH  067%=      5-min Rain = 0
KLA1 150700Z 33006KT 05/M00 A3023 RMK A01 T00541003  RH  067%=      5-min Rain = 0
KLA1 150701Z 32006KT 05/M00 A3023 RMK A01 T00541002  RH  067%=      5-min Rain = 0
KLA1 150702Z 33005KT 05/M00 A3023 RMK A01 T00531003  RH  067%=      5-min Rain = 0
KLA1 150703Z 33005KT 05/M00 A3023 RMK A01 T00531002  RH  067%=      5-min Rain = 0
KLA1 150704Z 33003KT 05/M00 A3023 RMK A01 T00531002  RH  067%=      5-min Rain = 0
KLA1 150705Z 32004KT 05/M00 A3023 RMK A01 T00531003  RH  067%=      5-min Rain = 0
KLA1 150706Z 33004KT 05/M00 A3023 RMK A01 T00531002  RH  068%=      5-min Rain = 0
KLA1 150707Z 31005KT 05/M00 A3023 RMK A01 T00531002  RH  068%=      5-min Rain = 0
KLA1 150708Z 31005KT 05/M00 A3023 RMK A01 T00521002  RH  068%=      5-min Rain = 0
KLA1 150709Z 31005KT 05/M00 A3023 RMK A01 T00521002  RH  068%=      5-min Rain = 0
KLA1 150710Z 31004KT 05/M00 A3023 RMK A01 T00511002  RH  068%=      5-min Rain = 0
KLA1 150711Z 33005KT 05/M00 A3023 RMK A01 T00511001  RH  069%=      5-min Rain = 0
KLA1 150712Z 32006KT 05/M00 A3023 RMK A01 T00511001  RH  069%=      5-min Rain = 0
KLA1 150713Z 32005KT 05/M00 A3023 RMK A01 T00501001  RH  069%=      5-min Rain = 0
KLA1 150714Z 32005KT 05/M00 A3023 RMK A01 T00501001  RH  069%=      5-min Rain = 0
KLA1 150715Z 33004KT 05/M00 A3023 RMK A01 T00511001  RH  069%=      5-min Rain = 0
KLA1 150716Z 31004KT 05/M00 A3023 RMK A01 T00501002  RH  069%=      5-min Rain = 0
KLA1 150717Z 32003KT 05/M00 A3023 RMK A01 T00501002  RH  069%=      5-min Rain = 0
KLA1 150718Z 32004KT 05/M00 A3023 RMK A01 T00501001  RH  070%=      5-min Rain = 0
KLA1 150719Z 32003KT 05/M00 A3023 RMK A01 T00501001  RH  070%=      5-min Rain = 0
KLA1 150720Z 31003KT 05/M00 A3023 RMK A01 T00491001  RH  070%=      5-min Rain = 0
KLA1 150721Z 32002KT 05/M00 A3023 RMK A01 T00491001  RH  070%=      5-min Rain = 0
KLA1 150722Z 32004KT 05/M00 A3023 RMK A01 T00481001  RH  070%=      5-min Rain = 0
KLA1 150723Z 31002KT 05/M00 A3023 RMK A01 T00481001  RH  070%=      5-min Rain = 0
KLA1 150724Z 32003KT 05/M00 A3023 RMK A01 T00481001  RH  071%=      5-min Rain = 0
KLA1 150725Z 32003KT 05/M00 A3024 RMK A01 T00481001  RH  071%=      5-min Rain = 0
KLA1 150726Z 32002KT 05/M00 A3024 RMK A01 T00481001  RH  071%=      5-min Rain = 0
KLA1 150727Z 32001KT 05/M00 A3024 RMK A01 T00481001  RH  071%=      5-min Rain = 0
KLA1 150728Z 32002KT 05/M00 A3024 RMK A01 T00481001  RH  071%=      5-min Rain = 0
KLA1 150729Z 32003KT 05/M00 A3024 RMK A01 T00471001  RH  071%=      5-min Rain = 0
KLA1 150730Z 32002KT 05/M00 A3024 RMK A01 T00471001  RH  071%=      5-min Rain = 0
KLA1 150731Z 34002KT 05/00 A3024 RMK A01 T004700-0  RH  072%=      5-min Rain = 0
KLA1 150732Z 32002KT 05/00 A3023 RMK A01 T004600-0  RH  072%=      5-min Rain = 0
KLA1 150733Z 32003KT 05/00 A3024 RMK A01 T004600-0  RH  072%=      5-min Rain = 0
KLA1 150734Z 32003KT 05/M00 A3024 RMK A01 T00461001  RH  071%=      5-min Rain = 0
KLA1 150735Z 32003KT 05/M00 A3024 RMK A01 T00461001  RH  071%=      5-min Rain = 0
KLA1 150736Z 32003KT 05/00 A3024 RMK A01 T004600-0  RH  072%=      5-min Rain = 0
KLA1 150737Z 31003KT 05/00 A3024 RMK A01 T004600-0  RH  072%=      5-min Rain = 0
KLA1 150738Z 32003KT 05/00 A3024 RMK A01 T004600-0  RH  072%=      5-min Rain = 0
KLA1 150739Z 31003KT 05/00 A3024 RMK A01 T004600-0  RH  072%=      5-min Rain = 0
KLA1 150740Z 32003KT 05/00 A3024 RMK A01 T004600-0  RH  072%=      5-min Rain = 0
KLA1 150741Z 31003KT 05/00 A3024 RMK A01 T004500-0  RH  072%=      5-min Rain = 0
KLA1 150742Z 31003KT 05/00 A3024 RMK A01 T004500-0  RH  072%=      5-min Rain = 0
KLA1 150743Z 31002KT 05/00 A3024 RMK A01 T004500-0  RH  072%=      5-min Rain = 0
KLA1 150744Z 31003KT 05/00 A3024 RMK A01 T004500-0  RH  073%=      5-min Rain = 0
KLA1 150745Z 31002KT 05/00 A3024 RMK A01 T00450000  RH  073%=      5-min Rain = 0
KLA1 150746Z 31002KT 05/00 A3024 RMK A01 T00450001  RH  073%=      5-min Rain = 0
KLA1 150747Z 31003KT 04/00 A3024 RMK A01 T00440000  RH  073%=      5-min Rain = 0
KLA1 150748Z 31002KT 05/00 A3024 RMK A01 T00450001  RH  073%=      5-min Rain = 0
KLA1 150749Z 33003KT 04/00 A3024 RMK A01 T00440000  RH  073%=      5-min Rain = 0
KLA1 150750Z 33003KT 04/00 A3024 RMK A01 T00440000  RH  073%=      5-min Rain = 0
KLA1 150751Z 32003KT 04/00 A3024 RMK A01 T00440000  RH  073%=      5-min Rain = 0
KLA1 150752Z 32003KT 04/00 A3024 RMK A01 T00440000  RH  073%=      5-min Rain = 0
KLA1 150753Z 33003KT 05/00 A3024 RMK A01 T004500-0  RH  073%=      5-min Rain = 0
KLA1 150754Z 33003KT 05/M00 A3024 RMK A01 T00451001  RH  072%=      5-min Rain = 0
KLA1 150755Z 32003KT 05/M00 A3024 RMK A01 T00451001  RH  072%=      5-min Rain = 0
KLA1 150756Z 34003KT 05/M00 A3024 RMK A01 T00451001  RH  072%=      5-min Rain = 0
KLA1 150757Z 32003KT 05/00 A3024 RMK A01 T004500-0  RH  072%=      5-min Rain = 0
KLA1 150758Z 33003KT 05/00 A3024 RMK A01 T004500-0  RH  072%=      5-min Rain = 0
KLA1 150759Z 34003KT 05/00 A3024 RMK A01 T00460000  RH  072%=      5-min Rain = 0
KLA1 150800Z 34003KT 05/M00 A3024 RMK A01 T00451001  RH  072%=      5-min Rain = 0
KLA1 150801Z 34003KT 05/M00 A3023 RMK A01 T00461001  RH  071%=      5-min Rain = 0
KLA1 150802Z 33003KT 05/M00 A3023 RMK A01 T00461002  RH  071%=      5-min Rain = 0
KLA1 150803Z 35003KT 05/M00 A3023 RMK A01 T00471002  RH  071%=      5-min Rain = 0
KLA1 150804Z 35003KT 05/M00 A3023 RMK A01 T00471002  RH  071%=      5-min Rain = 0
KLA1 150805Z 34003KT 05/M00 A3024 RMK A01 T00471002  RH  071%=      5-min Rain = 0
KLA1 150806Z 35002KT 05/M00 A3024 RMK A01 T00471001  RH  071%=      5-min Rain = 0
KLA1 150807Z 35003KT 05/M00 A3024 RMK A01 T00471001  RH  071%=      5-min Rain = 0
KLA1 150808Z 34003KT 05/M00 A3023 RMK A01 T00471001  RH  071%=      5-min Rain = 0
KLA1 150809Z 34003KT 05/00 A3023 RMK A01 T004700-0  RH  071%=      5-min Rain = 0
KLA1 150810Z 34003KT 05/M00 A3023 RMK A01 T00471001  RH  071%=      5-min Rain = 0
KLA1 150811Z 34003KT 05/M00 A3023 RMK A01 T00471001  RH  071%=      5-min Rain = 0
KLA1 150812Z 36004KT 05/M00 A3023 RMK A01 T00471002  RH  071%=      5-min Rain = 0
KLA1 150813Z 34004KT 05/M00 A3023 RMK A01 T00471002  RH  071%=      5-min Rain = 0
KLA1 150814Z 35003KT 05/M00 A3023 RMK A01 T00481001  RH  071%=      5-min Rain = 0
KLA1 150815Z 34003KT 05/M00 A3023 RMK A01 T00481001  RH  071%=      5-min Rain = 0
KLA1 150816Z 34004KT 05/00 A3023 RMK A01 T004800-0  RH  071%=      5-min Rain = 0
KLA1 150817Z 34004KT 05/00 A3023 RMK A01 T004800-0  RH  071%=      5-min Rain = 0
KLA1 150818Z 34003KT 05/M00 A3023 RMK A01 T00481001  RH  071%=      5-min Rain = 0
KLA1 150819Z 35002KT 05/M00 A3023 RMK A01 T00481001  RH  070%=      5-min Rain = 0
KLA1 150820Z 34002KT 05/M00 A3023 RMK A01 T00491001  RH  070%=      5-min Rain = 0
KLA1 150821Z 33003KT 05/M00 A3023 RMK A01 T00491001  RH  070%=      5-min Rain = 0
KLA1 150822Z 33003KT 05/M00 A3023 RMK A01 T00491002  RH  070%=      5-min Rain = 0
KLA1 150823Z 33002KT 05/M00 A3023 RMK A01 T00491002  RH  070%=      5-min Rain = 0
KLA1 150824Z 33002KT 05/M00 A3023 RMK A01 T00491002  RH  070%=      5-min Rain = 0
KLA1 150825Z 33003KT 05/M00 A3023 RMK A01 T00491001  RH  070%=      5-min Rain = 0
KLA1 150826Z 32003KT 05/M00 A3023 RMK A01 T00491001  RH  070%=      5-min Rain = 0
KLA1 150827Z 32003KT 05/M00 A3023 RMK A01 T00491001  RH  070%=      5-min Rain = 0
KLA1 150828Z 32003KT 05/M00 A3023 RMK A01 T00491002  RH  070%=      5-min Rain = 0
KLA1 150829Z 31003KT 05/M00 A3023 RMK A01 T00491001  RH  070%=      5-min Rain = 0
KLA1 150830Z 31003KT 05/M00 A3023 RMK A01 T00481001  RH  070%=      5-min Rain = 0
KLA1 150831Z 31003KT 05/M00 A3023 RMK A01 T00481001  RH  071%=      5-min Rain = 0
KLA1 150832Z 31003KT 05/M00 A3023 RMK A01 T00481001  RH  071%=      5-min Rain = 0
KLA1 150833Z 32003KT 05/M00 A3023 RMK A01 T00471001  RH  071%=      5-min Rain = 0
KLA1 150834Z 32004KT 05/M00 A3023 RMK A01 T00461001  RH  071%=      5-min Rain = 0
KLA1 150835Z 31004KT 05/M00 A3023 RMK A01 T00461001  RH  071%=      5-min Rain = 0
KLA1 150836Z 31004KT 05/M00 A3022 RMK A01 T00461002  RH  071%=      5-min Rain = 0
KLA1 150837Z 32004KT 05/M00 A3022 RMK A01 T00461002  RH  071%=      5-min Rain = 0
KLA1 150838Z 32004KT 05/M00 A3022 RMK A01 T00461002  RH  071%=      5-min Rain = 0
KLA1 150839Z 32004KT 05/M00 A3022 RMK A01 T00461001  RH  071%=      5-min Rain = 0
KLA1 150840Z 32004KT 05/M00 A3022 RMK A01 T00461001  RH  071%=      5-min Rain = 0
KLA1 150841Z 32004KT 05/M00 A3022 RMK A01 T00471001  RH  071%=      5-min Rain = 0
KLA1 150842Z 32004KT 05/M00 A3022 RMK A01 T00461002  RH  071%=      5-min Rain = 0
KLA1 150843Z 32004KT 05/M00 A3022 RMK A01 T00461002  RH  071%=      5-min Rain = 0
KLA1 150844Z 32004KT 05/M00 A3022 RMK A01 T00461002  RH  071%=      5-min Rain = 0
KLA1 150845Z 32005KT 05/M00 A3022 RMK A01 T00461002  RH  071%=      5-min Rain = 0
KLA1 150846Z 33005KT 05/M00 A3022 RMK A01 T00461002  RH  071%=      5-min Rain = 0
KLA1 150847Z 33004KT 05/M00 A3022 RMK A01 T00461002  RH  071%=      5-min Rain = 0
KLA1 150848Z 33005KT 05/M00 A3022 RMK A01 T00461002  RH  071%=      5-min Rain = 0
KLA1 150849Z 34005KT 05/M00 A3022 RMK A01 T00461003  RH  070%=      5-min Rain = 0
KLA1 150850Z 34004KT 05/M00 A3022 RMK A01 T00471004  RH  070%=      5-min Rain = 0
KLA1 150851Z 34004KT 05/M00 A3022 RMK A01 T00481004  RH  069%=      5-min Rain = 0
KLA1 150852Z 34005KT 05/M00 A3022 RMK A01 T00481004  RH  069%=      5-min Rain = 0
KLA1 150853Z 33004KT 05/M01 A3022 RMK A01 T00481005  RH  069%=      5-min Rain = 0
KLA1 150854Z 33005KT 05/M01 A3022 RMK A01 T00491005  RH  068%=      5-min Rain = 0
KLA1 150855Z 34004KT 05/M01 A3022 RMK A01 T00491005  RH  068%=      5-min Rain = 0
KLA1 150856Z 34004KT 05/M01 A3022 RMK A01 T00491005  RH  068%=      5-min Rain = 0
KLA1 150857Z 34003KT 05/M00 A3022 RMK A01 T00491004  RH  068%=      5-min Rain = 0
KLA1 150858Z 34004KT 05/M00 A3022 RMK A01 T00491004  RH  069%=      5-min Rain = 0
KLA1 150859Z 35004KT 05/M00 A3022 RMK A01 T00491004  RH  069%=      5-min Rain = 0
KLA1 150900Z 35004KT 05/M00 A3022 RMK A01 T00481004  RH  069%=      5-min Rain = 0
KLA1 150901Z 35004KT 05/M00 A3022 RMK A01 T00481004  RH  069%=      5-min Rain = 0
KLA1 150902Z 35005KT 05/M00 A3022 RMK A01 T00481004  RH  069%=      5-min Rain = 0
KLA1 150903Z 35005KT 05/M00 A3022 RMK A01 T00481004  RH  069%=      5-min Rain = 0
KLA1 150904Z 35005KT 05/M01 A3022 RMK A01 T00481005  RH  069%=      5-min Rain = 0
KLA1 150905Z 35004KT 05/M01 A3022 RMK A01 T00481005  RH  069%=      5-min Rain = 0
KLA1 150906Z 35005KT 05/M00 A3022 RMK A01 T00481004  RH  069%=      5-min Rain = 0
KLA1 150907Z 35004KT 05/M00 A3022 RMK A01 T00481004  RH  069%=      5-min Rain = 0
KLA1 150908Z 35004KT 05/M00 A3022 RMK A01 T00481004  RH  069%=      5-min Rain = 0
KLA1 150909Z 34004KT 05/M00 A3022 RMK A01 T00471004  RH  069%=      5-min Rain = 0
KLA1 150910Z 34004KT 05/M00 A3022 RMK A01 T00471004  RH  070%=      5-min Rain = 0
KLA1 150911Z 34003KT 05/M00 A3022 RMK A01 T00471004  RH  070%=      5-min Rain = 0
KLA1 150912Z 35003KT 05/M00 A3022 RMK A01 T00461004  RH  070%=      5-min Rain = 0
KLA1 150913Z 35004KT 05/M00 A3022 RMK A01 T00461004  RH  070%=      5-min Rain = 0
KLA1 150914Z 34004KT 05/M00 A3022 RMK A01 T00451004  RH  070%=      5-min Rain = 0
KLA1 150915Z 34004KT 05/M01 A3022 RMK A01 T00451005  RH  070%=      5-min Rain = 0
KLA1 150916Z 33004KT 05/M01 A3022 RMK A01 T00451005  RH  070%=      5-min Rain = 0
KLA1 150917Z 34003KT 05/M00 A3022 RMK A01 T00451004  RH  070%=      5-min Rain = 0
KLA1 150918Z 34003KT 05/M00 A3022 RMK A01 T00451004  RH  071%=      5-min Rain = 0
KLA1 150919Z 34003KT 05/M00 A3022 RMK A01 T00451004  RH  071%=      5-min Rain = 0
KLA1 150920Z 32002KT 04/M00 A3022 RMK A01 T00441003  RH  072%=      5-min Rain = 0
KLA1 150921Z 28001KT 04/M00 A3022 RMK A01 T00431003  RH  072%=      5-min Rain = 0
KLA1 150922Z 29001KT 04/M00 A3022 RMK A01 T00421003  RH  072%=      5-min Rain = 0
KLA1 150923Z 27000KT 04/M00 A3022 RMK A01 T00421003  RH  073%=      5-min Rain = 0
KLA1 150924Z 27000KT 04/M00 A3022 RMK A01 T00411004  RH  073%=      5-min Rain = 0
KLA1 150925Z 29001KT 04/M00 A3022 RMK A01 T00401004  RH  073%=      5-min Rain = 0
KLA1 150926Z 30001KT 04/M00 A3022 RMK A01 T00401004  RH  073%=      5-min Rain = 0
KLA1 150927Z 30000KT 04/M00 A3022 RMK A01 T00401004  RH  073%=      5-min Rain = 0
KLA1 150928Z 30001KT 04/M00 A3022 RMK A01 T00391004  RH  074%=      5-min Rain = 0
KLA1 150929Z 28001KT 04/M00 A3022 RMK A01 T00391003  RH  074%=      5-min Rain = 0
KLA1 150930Z 26001KT 04/M00 A3022 RMK A01 T00381003  RH  074%=      5-min Rain = 0
KLA1 150931Z 26001KT 04/M00 A3022 RMK A01 T00381003  RH  074%=      5-min Rain = 0
KLA1 150932Z 28001KT 04/M00 A3022 RMK A01 T00381003  RH  075%=      5-min Rain = 0
KLA1 150933Z 29001KT 04/M00 A3022 RMK A01 T00371004  RH  075%=      5-min Rain = 0
KLA1 150934Z 30001KT 04/M00 A3022 RMK A01 T00371003  RH  075%=      5-min Rain = 0
KLA1 150935Z 32001KT 04/M00 A3022 RMK A01 T00361003  RH  075%=      5-min Rain = 0
KLA1 150936Z 33001KT 04/M00 A3022 RMK A01 T00361003  RH  076%=      5-min Rain = 0
KLA1 150937Z 30000KT 04/M00 A3022 RMK A01 T00351003  RH  076%=      5-min Rain = 0
KLA1 150938Z 27002KT 04/M00 A3022 RMK A01 T00351002  RH  077%=      5-min Rain = 0
KLA1 150939Z 25002KT 03/M00 A3022 RMK A01 T00341002  RH  077%=      5-min Rain = 0
KLA1 150940Z 26002KT 03/M00 A3022 RMK A01 T00341002  RH  077%=      5-min Rain = 0
KLA1 150941Z 26001KT 03/M00 A3022 RMK A01 T00341002  RH  077%=      5-min Rain = 0
KLA1 150942Z 26001KT 04/M00 A3022 RMK A01 T00351002  RH  077%=      5-min Rain = 0
KLA1 150943Z 28001KT 03/M00 A3022 RMK A01 T00341002  RH  077%=      5-min Rain = 0
KLA1 150944Z 28002KT 03/M00 A3022 RMK A01 T00331002  RH  078%=      5-min Rain = 0
KLA1 150945Z 27002KT 03/M00 A3022 RMK A01 T00331002  RH  078%=      5-min Rain = 0
KLA1 150946Z 28001KT 03/M00 A3022 RMK A01 T00321002  RH  078%=      5-min Rain = 0
KLA1 150947Z 28002KT 03/M00 A3022 RMK A01 T00321002  RH  079%=      5-min Rain = 0
KLA1 150948Z 26002KT 03/M00 A3022 RMK A01 T00311002  RH  079%=      5-min Rain = 0
KLA1 150949Z 25002KT 03/M00 A3022 RMK A01 T00311002  RH  079%=      5-min Rain = 0
KLA1 150950Z 24002KT 03/M00 A3022 RMK A01 T00301002  RH  079%=      5-min Rain = 0
KLA1 150951Z 24002KT 03/M00 A3022 RMK A01 T00301001  RH  080%=      5-min Rain = 0
KLA1 150952Z 24002KT 03/M00 A3022 RMK A01 T00291002  RH  080%=      5-min Rain = 0
KLA1 150953Z 24003KT 03/M00 A3022 RMK A01 T00291002  RH  081%=      5-min Rain = 0
KLA1 150954Z 24003KT 03/M00 A3022 RMK A01 T00271002  RH  081%=      5-min Rain = 0
KLA1 150955Z 24002KT 03/M00 A3022 RMK A01 T00271001  RH  081%=      5-min Rain = 0
KLA1 150956Z 24002KT 03/M00 A3022 RMK A01 T00281002  RH  081%=      5-min Rain = 0
KLA1 150957Z 24002KT 03/M00 A3023 RMK A01 T00271002  RH  081%=      5-min Rain = 0
KLA1 150958Z 24002KT 03/M00 A3023 RMK A01 T00271002  RH  081%=      5-min Rain = 0
KLA1 150959Z 25002KT 03/M00 A3023 RMK A01 T00271002  RH  081%=      5-min Rain = 0
KLA1 151000Z 23003KT 03/M00 A3023 RMK A01 T00261003  RH  082%=      5-min Rain = 0
KLA1 151001Z 23003KT 03/M00 A3023 RMK A01 T00251002  RH  082%=      5-min Rain = 0
KLA1 151002Z 24003KT 03/M00 A3023 RMK A01 T00251002  RH  083%=      5-min Rain = 0
KLA1 151003Z 24003KT 03/M00 A3023 RMK A01 T00251002  RH  083%=      5-min Rain = 0
KLA1 151004Z 24003KT 03/M00 A3023 RMK A01 T00251002  RH  083%=      5-min Rain = 0
KLA1 151005Z 25003KT 03/M00 A3023 RMK A01 T00251002  RH  083%=      5-min Rain = 0
KLA1 151006Z 25003KT 03/M00 A3023 RMK A01 T00251002  RH  083%=      5-min Rain = 0
KLA1 151007Z 26003KT 02/M00 A3023 RMK A01 T00241002  RH  083%=      5-min Rain = 0
KLA1 151008Z 26002KT 02/M00 A3022 RMK A01 T00241002  RH  083%=      5-min Rain = 0
KLA1 151009Z 27002KT 02/M00 A3023 RMK A01 T00241002  RH  083%=      5-min Rain = 0
KLA1 151010Z 27003KT 02/M00 A3022 RMK A01 T00241001  RH  083%=      5-min Rain = 0
KLA1 151011Z 28002KT 02/M00 A3023 RMK A01 T00241002  RH  083%=      5-min Rain = 0
KLA1 151012Z 29003KT 03/M00 A3023 RMK A01 T00251001  RH  083%=      5-min Rain = 0
KLA1 151013Z 28003KT 03/M00 A3023 RMK A01 T00251001  RH  083%=      5-min Rain = 0
KLA1 151014Z 27002KT 03/M00 A3023 RMK A01 T00251001  RH  083%=      5-min Rain = 0
KLA1 151015Z 26003KT 03/M00 A3023 RMK A01 T00251001  RH  083%=      5-min Rain = 0
KLA1 151016Z 28003KT 03/M00 A3023 RMK A01 T00251001  RH  083%=      5-min Rain = 0
KLA1 151017Z 30002KT 03/M00 A3023 RMK A01 T00251001  RH  083%=      5-min Rain = 0
KLA1 151018Z 30002KT 03/M00 A3023 RMK A01 T00251001  RH  083%=      5-min Rain = 0
KLA1 151019Z 30002KT 03/M00 A3023 RMK A01 T00251001  RH  083%=      5-min Rain = 0
KLA1 151020Z 27002KT 03/M00 A3023 RMK A01 T00251001  RH  083%=      5-min Rain = 0
KLA1 151021Z 28002KT 03/M00 A3023 RMK A01 T00251001  RH  083%=      5-min Rain = 0
KLA1 151022Z 29002KT 03/M00 A3023 RMK A01 T00251001  RH  083%=      5-min Rain = 0
KLA1 151023Z 29002KT 03/M00 A3023 RMK A01 T00251001  RH  083%=      5-min Rain = 0
KLA1 151024Z 31002KT 03/M00 A3023 RMK A01 T00251001  RH  083%=      5-min Rain = 0
KLA1 151025Z 31002KT 03/M00 A3023 RMK A01 T00251001  RH  083%=      5-min Rain = 0
KLA1 151026Z 30002KT 02/M00 A3023 RMK A01 T00241001  RH  083%=      5-min Rain = 0
KLA1 151027Z 28003KT 02/M00 A3023 RMK A01 T00241001  RH  083%=      5-min Rain = 0
KLA1 151028Z 31002KT 02/M00 A3023 RMK A01 T00241001  RH  083%=      5-min Rain = 0
KLA1 151029Z 29002KT 02/M00 A3023 RMK A01 T00241001  RH  083%=      5-min Rain = 0
KLA1 151030Z 31002KT 02/M00 A3023 RMK A01 T00241001  RH  083%=      5-min Rain = 0
KLA1 151031Z 31003KT 02/M00 A3023 RMK A01 T00241001  RH  083%=      5-min Rain = 0
KLA1 151032Z 32003KT 03/M00 A3023 RMK A01 T00251001  RH  083%=      5-min Rain = 0
KLA1 151033Z 32002KT 03/M00 A3023 RMK A01 T00261001  RH  083%=      5-min Rain = 0
KLA1 151034Z 29001KT 03/M00 A3023 RMK A01 T00261001  RH  082%=      5-min Rain = 0
KLA1 151035Z 26002KT 03/M00 A3023 RMK A01 T00261001  RH  082%=      5-min Rain = 0
KLA1 151036Z 32001KT 03/M00 A3023 RMK A01 T00261001  RH  082%=      5-min Rain = 0
KLA1 151037Z 30002KT 03/M00 A3023 RMK A01 T00261002  RH  082%=      5-min Rain = 0
KLA1 151038Z 27003KT 03/M00 A3023 RMK A01 T00261001  RH  082%=      5-min Rain = 0
KLA1 151039Z 26002KT 03/M00 A3023 RMK A01 T00261001  RH  082%=      5-min Rain = 0
KLA1 151040Z 25002KT 03/M00 A3023 RMK A01 T00261001  RH  082%=      5-min Rain = 0
KLA1 151041Z 31001KT 03/M00 A3023 RMK A01 T00261001  RH  082%=      5-min Rain = 0
KLA1 151042Z 32002KT 03/M00 A3023 RMK A01 T00261001  RH  082%=      5-min Rain = 0
KLA1 151043Z 32002KT 03/M00 A3023 RMK A01 T00251002  RH  082%=      5-min Rain = 0
KLA1 151044Z 27001KT 03/M00 A3023 RMK A01 T00251002  RH  083%=      5-min Rain = 0
KLA1 151045Z 24002KT 03/M00 A3023 RMK A01 T00251001  RH  083%=      5-min Rain = 0
KLA1 151046Z 27002KT 03/M00 A3023 RMK A01 T00251001  RH  083%=      5-min Rain = 0
KLA1 151047Z 29001KT 03/M00 A3023 RMK A01 T00251002  RH  083%=      5-min Rain = 0
KLA1 151048Z 31001KT 03/M00 A3023 RMK A01 T00251002  RH  083%=      5-min Rain = 0
KLA1 151049Z 28001KT 03/M00 A3023 RMK A01 T00251002  RH  082%=      5-min Rain = 0
KLA1 151050Z 25001KT 03/M00 A3023 RMK A01 T00251002  RH  082%=      5-min Rain = 0
KLA1 151051Z 25002KT 03/M00 A3023 RMK A01 T00251002  RH  082%=      5-min Rain = 0
KLA1 151052Z 24002KT 03/M00 A3023 RMK A01 T00261002  RH  082%=      5-min Rain = 0
KLA1 151053Z 25001KT 03/M00 A3023 RMK A01 T00261002  RH  082%=      5-min Rain = 0
KLA1 151054Z 27001KT 03/M00 A3023 RMK A01 T00261002  RH  082%=      5-min Rain = 0
KLA1 151055Z 26001KT 03/M00 A3023 RMK A01 T00261002  RH  082%=      5-min Rain = 0
KLA1 151056Z 27001KT 03/M00 A3023 RMK A01 T00261002  RH  082%=      5-min Rain = 0
KLA1 151057Z 29000KT 03/M00 A3023 RMK A01 T00261002  RH  082%=      5-min Rain = 0
KLA1 151058Z 28000KT 03/M00 A3023 RMK A01 T00261002  RH  082%=      5-min Rain = 0
KLA1 151059Z 25000KT 03/M00 A3023 RMK A01 T00261002  RH  082%=      5-min Rain = 0
KLA1 151100Z 28000KT 03/M00 A3023 RMK A01 T00261002  RH  082%=      5-min Rain = 0
KLA1 151101Z 27000KT 03/M00 A3023 RMK A01 T00251003  RH  082%=      5-min Rain = 0
KLA1 151102Z 00000KT 03/M00 A3023 RMK A01 T00251003  RH  082%=      5-min Rain = 0
KLA1 151103Z 24000KT 02/M00 A3023 RMK A01 T00241003  RH  082%=      5-min Rain = 0
KLA1 151104Z 26001KT 02/M01 A3023 RMK A01 T00221005  RH  082%=      5-min Rain = 0
KLA1 151105Z 26001KT 02/M01 A3023 RMK A01 T00201006  RH  083%=      5-min Rain = 0
KLA1 151106Z 27001KT 02/M01 A3023 RMK A01 T00191006  RH  084%=      5-min Rain = 0
KLA1 151107Z 28001KT 02/M01 A3023 RMK A01 T00181005  RH  085%=      5-min Rain = 0
KLA1 151108Z 27001KT 02/M01 A3023 RMK A01 T00161006  RH  085%=      5-min Rain = 0
KLA1 151109Z 27001KT 02/M01 A3023 RMK A01 T00161005  RH  086%=      5-min Rain = 0
KLA1 151110Z 27002KT 02/M00 A3023 RMK A01 T00161004  RH  087%=      5-min Rain = 0
KLA1 151111Z 28001KT 02/M00 A3023 RMK A01 T00161003  RH  087%=      5-min Rain = 0
KLA1 151112Z 27002KT 02/M00 A3023 RMK A01 T00161003  RH  087%=      5-min Rain = 0
KLA1 151113Z 27001KT 02/M00 A3023 RMK A01 T00161003  RH  087%=      5-min Rain = 0
KLA1 151114Z 28001KT 02/M00 A3023 RMK A01 T00161002  RH  088%=      5-min Rain = 0
KLA1 151115Z 26001KT 02/M00 A3023 RMK A01 T00161003  RH  088%=      5-min Rain = 0
KLA1 151116Z 26002KT 02/M00 A3023 RMK A01 T00161003  RH  087%=      5-min Rain = 0
KLA1 151117Z 25002KT 02/M00 A3023 RMK A01 T00161003  RH  087%=      5-min Rain = 0
KLA1 151118Z 27001KT 02/M00 A3023 RMK A01 T00161003  RH  087%=      5-min Rain = 0
KLA1 151119Z 27001KT 02/M00 A3023 RMK A01 T00151004  RH  087%=      5-min Rain = 0
KLA1 151120Z 27002KT 02/M00 A3023 RMK A01 T00151003  RH  088%=      5-min Rain = 0
KLA1 151121Z 27002KT 02/M00 A3023 RMK A01 T00161002  RH  088%=      5-min Rain = 0
KLA1 151122Z 27002KT 02/M00 A3024 RMK A01 T00171002  RH  087%=      5-min Rain = 0
KLA1 151123Z 28002KT 02/M00 A3024 RMK A01 T00171002  RH  087%=      5-min Rain = 0
KLA1 151124Z 28001KT 02/M00 A3024 RMK A01 T00171002  RH  087%=      5-min Rain = 0
KLA1 151125Z 26002KT 02/M00 A3024 RMK A01 T00181002  RH  087%=      5-min Rain = 0
KLA1 151126Z 26002KT 02/M00 A3024 RMK A01 T00181002  RH  087%=      5-min Rain = 0
KLA1 151127Z 28002KT 02/M00 A3024 RMK A01 T00181002  RH  086%=      5-min Rain = 0
KLA1 151128Z 28002KT 02/M00 A3024 RMK A01 T00181002  RH  086%=      5-min Rain = 0
KLA1 151129Z 28002KT 02/M00 A3024 RMK A01 T00181003  RH  086%=      5-min Rain = 0
KLA1 151130Z 28002KT 02/M00 A3024 RMK A01 T00181002  RH  086%=      5-min Rain = 0
KLA1 151131Z 28003KT 02/M00 A3024 RMK A01 T00181002  RH  086%=      5-min Rain = 0
KLA1 151132Z 28003KT 02/M00 A3024 RMK A01 T00181002  RH  087%=      5-min Rain = 0
KLA1 151133Z 28002KT 02/M00 A3024 RMK A01 T00181002  RH  087%=      5-min Rain = 0
KLA1 151134Z 28002KT 02/M00 A3024 RMK A01 T00181002  RH  087%=      5-min Rain = 0
KLA1 151135Z 29002KT 02/M00 A3024 RMK A01 T00181002  RH  087%=      5-min Rain = 0
KLA1 151136Z 28003KT 02/M00 A3024 RMK A01 T00181002  RH  087%=      5-min Rain = 0
KLA1 151137Z 28003KT 02/M00 A3024 RMK A01 T00181002  RH  087%=      5-min Rain = 0
KLA1 151138Z 28003KT 02/M00 A3024 RMK A01 T00191001  RH  087%=      5-min Rain = 0
KLA1 151139Z 28002KT 02/M00 A3024 RMK A01 T00191001  RH  087%=      5-min Rain = 0
KLA1 151140Z 28002KT 02/M00 A3024 RMK A01 T00191001  RH  086%=      5-min Rain = 0
KLA1 151141Z 29002KT 02/M00 A3024 RMK A01 T00201001  RH  086%=      5-min Rain = 0
KLA1 151142Z 28003KT 02/M00 A3024 RMK A01 T00201001  RH  086%=      5-min Rain = 0
KLA1 151143Z 29002KT 02/M00 A3024 RMK A01 T00201001  RH  086%=      5-min Rain = 0
KLA1 151144Z 29002KT 02/M00 A3024 RMK A01 T00201001  RH  086%=      5-min Rain = 0
KLA1 151145Z 30002KT 02/M00 A3024 RMK A01 T00201001  RH  086%=      5-min Rain = 0
KLA1 151146Z 30002KT 02/M00 A3024 RMK A01 T00201001  RH  086%=      5-min Rain = 0
KLA1 151147Z 30002KT 02/M00 A3024 RMK A01 T00201001  RH  086%=      5-min Rain = 0
KLA1 151148Z 29002KT 02/M00 A3023 RMK A01 T00201001  RH  086%=      5-min Rain = 0
KLA1 151149Z 28001KT 02/M00 A3023 RMK A01 T00201001  RH  086%=      5-min Rain = 0
KLA1 151150Z 28002KT 02/M00 A3023 RMK A01 T00191001  RH  086%=      5-min Rain = 0
KLA1 151151Z 30001KT 02/M00 A3024 RMK A01 T00191002  RH  086%=      5-min Rain = 0
KLA1 151152Z 30002KT 02/M00 A3024 RMK A01 T00171003  RH  086%=      5-min Rain = 0
KLA1 151153Z 29001KT 02/M01 A3024 RMK A01 T00161005  RH  086%=      5-min Rain = 0
KLA1 151154Z 30001KT 02/M00 A3024 RMK A01 T00161004  RH  087%=      5-min Rain = 0
KLA1 151155Z 30001KT 02/M00 A3024 RMK A01 T00151004  RH  087%=      5-min Rain = 0
KLA1 151156Z 30001KT 02/M00 A3024 RMK A01 T00151004  RH  087%=      5-min Rain = 0
KLA1 151157Z 34001KT 01/M01 A3024 RMK A01 T00141005  RH  087%=      5-min Rain = 0
KLA1 151158Z 36001KT 01/M01 A3024 RMK A01 T00131005  RH  087%=      5-min Rain = 0
KLA1 151159Z 00001KT 01/M01 A3024 RMK A01 T00121006  RH  087%=      5-min Rain = 0
KLA1 151200Z 00000KT 01/M01 A3024 RMK A01 T00121006  RH  088%=      5-min Rain = 0
KLA1 151201Z 34001KT 01/M01 A3024 RMK A01 T00111006  RH  088%=      5-min Rain = 0
KLA1 151202Z 01001KT 01/M00 A3024 RMK A01 T00121004  RH  089%=      5-min Rain = 0
KLA1 151203Z 36001KT 01/M00 A3024 RMK A01 T00131003  RH  089%=      5-min Rain = 0
KLA1 151204Z 00002KT 01/M00 A3024 RMK A01 T00131004  RH  088%=      5-min Rain = 0
KLA1 151205Z 35001KT 01/M00 A3024 RMK A01 T00131004  RH  088%=      5-min Rain = 0
KLA1 151206Z 35001KT 01/M00 A3024 RMK A01 T00141003  RH  088%=      5-min Rain = 0
KLA1 151207Z 34001KT 02/M00 A3024 RMK A01 T00151002  RH  088%=      5-min Rain = 0
KLA1 151208Z 35001KT 02/M00 A3024 RMK A01 T00161002  RH  088%=      5-min Rain = 0
KLA1 151209Z 33001KT 02/M00 A3024 RMK A01 T00171002  RH  088%=      5-min Rain = 0
KLA1 151210Z 33001KT 02/M00 A3024 RMK A01 T00171002  RH  087%=      5-min Rain = 0
KLA1 151211Z 32001KT 02/M00 A3024 RMK A01 T00181002  RH  087%=      5-min Rain = 0
KLA1 151212Z 31002KT 02/M00 A3024 RMK A01 T00181002  RH  086%=      5-min Rain = 0
KLA1 151213Z 32002KT 02/M00 A3024 RMK A01 T00191002  RH  086%=      5-min Rain = 0
KLA1 151214Z 31001KT 02/M00 A3024 RMK A01 T00191002  RH  086%=      5-min Rain = 0
KLA1 151215Z 32002KT 02/M00 A3024 RMK A01 T00201002  RH  085%=      5-min Rain = 0
KLA1 151216Z 34003KT 02/M00 A3024 RMK A01 T00211003  RH  084%=      5-min Rain = 0
KLA1 151217Z 33004KT 02/M00 A3024 RMK A01 T00241003  RH  082%=      5-min Rain = 0
KLA1 151218Z 34003KT 03/M00 A3024 RMK A01 T00261003  RH  081%=      5-min Rain = 0
KLA1 151219Z 34005KT 03/M00 A3024 RMK A01 T00271003  RH  081%=      5-min Rain = 0
KLA1 151220Z 34004KT 03/M00 A3024 RMK A01 T00281004  RH  080%=      5-min Rain = 0
KLA1 151221Z 32006KT 03/M00 A3024 RMK A01 T00291004  RH  079%=      5-min Rain = 0
KLA1 151222Z 33003KT 03/M00 A3024 RMK A01 T00301004  RH  078%=      5-min Rain = 0
KLA1 151223Z 30002KT 03/M00 A3024 RMK A01 T00311004  RH  078%=      5-min Rain = 0
KLA1 151224Z 31002KT 03/M00 A3024 RMK A01 T00311004  RH  078%=      5-min Rain = 0
KLA1 151225Z 31002KT 03/M00 A3024 RMK A01 T00301004  RH  078%=      5-min Rain = 0
KLA1 151226Z 29004KT 03/M00 A3024 RMK A01 T00301004  RH  078%=      5-min Rain = 0
KLA1 151227Z 29004KT 03/M00 A3024 RMK A01 T00301004  RH  079%=      5-min Rain = 0
KLA1 151228Z 30003KT 03/M00 A3024 RMK A01 T00291004  RH  079%=      5-min Rain = 0
KLA1 151229Z 31003KT 03/M01 A3024 RMK A01 T00271005  RH  080%=      5-min Rain = 0
KLA1 151230Z 33003KT 03/M00 A3024 RMK A01 T00261004  RH  080%=      5-min Rain = 0
KLA1 151231Z 32003KT 03/M00 A3024 RMK A01 T00261004  RH  081%=      5-min Rain = 0
KLA1 151232Z 32003KT 03/M00 A3024 RMK A01 T00251004  RH  081%=      5-min Rain = 0
KLA1 151233Z 32003KT 03/M00 A3024 RMK A01 T00251004  RH  081%=      5-min Rain = 0
KLA1 151234Z 29003KT 03/M00 A3024 RMK A01 T00251004  RH  081%=      5-min Rain = 0
KLA1 151235Z 32003KT 03/M00 A3024 RMK A01 T00251004  RH  082%=      5-min Rain = 0
KLA1 151236Z 32003KT 03/M00 A3024 RMK A01 T00251004  RH  081%=      5-min Rain = 0
KLA1 151237Z 32004KT 03/M00 A3024 RMK A01 T00251004  RH  081%=      5-min Rain = 0
KLA1 151238Z 31005KT 03/M00 A3024 RMK A01 T00251004  RH  081%=      5-min Rain = 0
KLA1 151239Z 29004KT 03/M01 A3024 RMK A01 T00251005  RH  081%=      5-min Rain = 0
KLA1 151240Z 30005KT 03/M01 A3024 RMK A01 T00251005  RH  081%=      5-min Rain = 0
KLA1 151241Z 29005KT 03/M00 A3025 RMK A01 T00261004  RH  081%=      5-min Rain = 0
KLA1 151242Z 29005KT 03/M00 A3025 RMK A01 T00251004  RH  081%=      5-min Rain = 0
KLA1 151243Z 31004KT 03/M00 A3025 RMK A01 T00251003  RH  082%=      5-min Rain = 0
KLA1 151244Z 30004KT 02/M00 A3025 RMK A01 T00241003  RH  082%=      5-min Rain = 0
KLA1 151245Z 30004KT 02/M00 A3025 RMK A01 T00231003  RH  083%=      5-min Rain = 0
KLA1 151246Z 30004KT 02/M00 A3025 RMK A01 T00231003  RH  083%=      5-min Rain = 0
KLA1 151247Z 29005KT 02/M00 A3025 RMK A01 T00231003  RH  083%=      5-min Rain = 0
KLA1 151248Z 30004KT 02/M00 A3025 RMK A01 T00231003  RH  084%=      5-min Rain = 0
KLA1 151249Z 30005KT 02/M00 A3025 RMK A01 T00221003  RH  084%=      5-min Rain = 0
KLA1 151250Z 29005KT 02/M00 A3025 RMK A01 T00231002  RH  084%=      5-min Rain = 0
KLA1 151251Z 30004KT 02/M00 A3025 RMK A01 T00221003  RH  084%=      5-min Rain = 0
KLA1 151252Z 30005KT 02/M00 A3025 RMK A01 T00221003  RH  084%=      5-min Rain = 0
KLA1 151253Z 29004KT 02/M00 A3025 RMK A01 T00221003  RH  083%=      5-min Rain = 0
KLA1 151254Z 32003KT 02/M00 A3025 RMK A01 T00231003  RH  083%=      5-min Rain = 0
KLA1 151255Z 31005KT 02/M00 A3025 RMK A01 T00231003  RH  083%=      5-min Rain = 0
KLA1 151256Z 30005KT 02/M00 A3025 RMK A01 T00241003  RH  082%=      5-min Rain = 0
KLA1 151257Z 30005KT 02/M00 A3025 RMK A01 T00241004  RH  082%=      5-min Rain = 0
KLA1 151258Z 29005KT 02/M00 A3025 RMK A01 T00241004  RH  081%=      5-min Rain = 0
KLA1 151259Z 29005KT 03/M00 A3025 RMK A01 T00251004  RH  082%=      5-min Rain = 0
KLA1 151300Z 29005KT 03/M00 A3025 RMK A01 T00251003  RH  082%=      5-min Rain = 0
KLA1 151301Z 29004KT 03/M00 A3025 RMK A01 T00251003  RH  082%=      5-min Rain = 0
KLA1 151302Z 30005KT 02/M00 A3025 RMK A01 T00241003  RH  082%=      5-min Rain = 0
KLA1 151303Z 29005KT 02/M00 A3025 RMK A01 T00241002  RH  083%=      5-min Rain = 0
KLA1 151304Z 29005KT 02/M00 A3025 RMK A01 T00241003  RH  083%=      5-min Rain = 0
KLA1 151305Z 29005KT 02/M00 A3025 RMK A01 T00231003  RH  083%=      5-min Rain = 0
KLA1 151306Z 30005KT 02/M00 A3025 RMK A01 T00231002  RH  083%=      5-min Rain = 0
KLA1 151307Z 29005KT 02/M00 A3025 RMK A01 T00231002  RH  083%=      5-min Rain = 0
KLA1 151308Z 28005KT 02/M00 A3025 RMK A01 T00231002  RH  083%=      5-min Rain = 0
KLA1 151309Z 29005KT 02/M00 A3025 RMK A01 T00231003  RH  083%=      5-min Rain = 0
KLA1 151310Z 30004KT 02/M00 A3025 RMK A01 T00241003  RH  082%=      5-min Rain = 0
KLA1 151311Z 31003KT 02/M00 A3025 RMK A01 T00241003  RH  083%=      5-min Rain = 0
KLA1 151312Z 29004KT 02/M00 A3025 RMK A01 T00241003  RH  083%=      5-min Rain = 0
KLA1 151313Z 28003KT 02/M00 A3025 RMK A01 T00241003  RH  082%=      5-min Rain = 0
KLA1 151314Z 29003KT 02/M00 A3025 RMK A01 T00241003  RH  082%=      5-min Rain = 0
KLA1 151315Z 29005KT 02/M00 A3025 RMK A01 T00241003  RH  082%=      5-min Rain = 0
KLA1 151316Z 28005KT 02/M00 A3025 RMK A01 T00241003  RH  082%=      5-min Rain = 0
KLA1 151317Z 28004KT 02/M00 A3025 RMK A01 T00241004  RH  082%=      5-min Rain = 0
KLA1 151318Z 29004KT 02/M00 A3025 RMK A01 T00241004  RH  082%=      5-min Rain = 0
KLA1 151319Z 29006KT 02/M01 A3025 RMK A01 T00241005  RH  081%=      5-min Rain = 0
KLA1 151320Z 28005KT 02/M01 A3025 RMK A01 T00241005  RH  081%=      5-min Rain = 0
KLA1 151321Z 27005KT 03/M01 A3026 RMK A01 T00251005  RH  080%=      5-min Rain = 0
KLA1 151322Z 28004KT 03/M01 A3026 RMK A01 T00261005  RH  080%=      5-min Rain = 0
KLA1 151323Z 27005KT 03/M01 A3026 RMK A01 T00261006  RH  080%=      5-min Rain = 0
KLA1 151324Z 28004KT 03/M01 A3026 RMK A01 T00261005  RH  080%=      5-min Rain = 0
KLA1 151325Z 27004KT 03/M01 A3026 RMK A01 T00261005  RH  080%=      5-min Rain = 0
KLA1 151326Z 28005KT 03/M01 A3026 RMK A01 T00261005  RH  080%=      5-min Rain = 0
KLA1 151327Z 29004KT 03/M01 A3026 RMK A01 T00261005  RH  080%=      5-min Rain = 0
KLA1 151328Z 30002KT 03/M01 A3026 RMK A01 T00251005  RH  080%=      5-min Rain = 0
KLA1 151329Z 30003KT 03/M01 A3026 RMK A01 T00261005  RH  080%=      5-min Rain = 0
KLA1 151330Z 31003KT 03/M01 A3026 RMK A01 T00261005  RH  080%=      5-min Rain = 0
KLA1 151331Z 29003KT 03/M01 A3026 RMK A01 T00261005  RH  080%=      5-min Rain = 0
KLA1 151332Z 28002KT 03/M01 A3026 RMK A01 T00261006  RH  080%=      5-min Rain = 0
KLA1 151333Z 28002KT 03/M01 A3026 RMK A01 T00261006  RH  080%=      5-min Rain = 0
KLA1 151334Z 29002KT 03/M01 A3026 RMK A01 T00261006  RH  079%=      5-min Rain = 0
KLA1 151335Z 29002KT 03/M01 A3026 RMK A01 T00261006  RH  080%=      5-min Rain = 0
KLA1 151336Z 28002KT 03/M01 A3026 RMK A01 T00251006  RH  080%=      5-min Rain = 0
KLA1 151337Z 30002KT 03/M01 A3026 RMK A01 T00251006  RH  080%=      5-min Rain = 0
KLA1 151338Z 32002KT 03/M01 A3026 RMK A01 T00251005  RH  081%=      5-min Rain = 0
KLA1 151339Z 32002KT 02/M01 A3026 RMK A01 T00241005  RH  081%=      5-min Rain = 0
KLA1 151340Z 33002KT 02/M01 A3026 RMK A01 T00241005  RH  081%=      5-min Rain = 0
KLA1 151341Z 35002KT 02/M01 A3026 RMK A01 T00241005  RH  081%=      5-min Rain = 0
KLA1 151342Z 00002KT 02/M01 A3026 RMK A01 T00241006  RH  081%=      5-min Rain = 0
KLA1 151343Z 01002KT 03/M01 A3027 RMK A01 T00251007  RH  080%=      5-min Rain = 0
KLA1 151344Z 04002KT 03/M01 A3027 RMK A01 T00251007  RH  079%=      5-min Rain = 0
KLA1 151345Z 03002KT 03/M01 A3027 RMK A01 T00261008  RH  078%=      5-min Rain = 0
KLA1 151346Z 01002KT 03/M01 A3027 RMK A01 T00271008  RH  078%=      5-min Rain = 0
KLA1 151347Z 34002KT 03/M01 A3027 RMK A01 T00281008  RH  078%=      5-min Rain = 0
KLA1 151348Z 29002KT 03/M01 A3027 RMK A01 T00281008  RH  077%=      5-min Rain = 0
KLA1 151349Z 29001KT 03/M01 A3027 RMK A01 T00291008  RH  076%=      5-min Rain = 0
KLA1 151350Z 30001KT 03/M01 A3027 RMK A01 T00291008  RH  076%=      5-min Rain = 0
KLA1 151351Z 26002KT 03/M01 A3027 RMK A01 T00301008  RH  076%=      5-min Rain = 0
KLA1 151352Z 26003KT 03/M01 A3027 RMK A01 T00301009  RH  076%=      5-min Rain = 0
KLA1 151353Z 24002KT 03/M01 A3027 RMK A01 T00311009  RH  075%=      5-min Rain = 0
KLA1 151354Z 26001KT 03/M01 A3027 RMK A01 T00311008  RH  075%=      5-min Rain = 0
KLA1 151355Z 27001KT 03/M01 A3027 RMK A01 T00321008  RH  075%=      5-min Rain = 0
KLA1 151356Z 27002KT 03/M01 A3027 RMK A01 T00311008  RH  075%=      5-min Rain = 0
KLA1 151357Z 27002KT 03/M01 A3027 RMK A01 T00321007  RH  076%=      5-min Rain = 0
KLA1 151358Z 28002KT 03/M01 A3027 RMK A01 T00321006  RH  076%=      5-min Rain = 0
KLA1 151359Z 30002KT 03/M01 A3028 RMK A01 T00321006  RH  076%=      5-min Rain = 0
KLA1 151400Z 32002KT 03/M01 A3028 RMK A01 T00321006  RH  076%=      5-min Rain = 0
KLA1 151401Z 33002KT 03/M01 A3028 RMK A01 T00311006  RH  076%=      5-min Rain = 0
KLA1 151402Z 33002KT 03/M01 A3027 RMK A01 T00311006  RH  077%=      5-min Rain = 0
KLA1 151403Z 31002KT 03/M01 A3027 RMK A01 T00311005  RH  077%=      5-min Rain = 0
KLA1 151404Z 30002KT 03/M01 A3027 RMK A01 T00311005  RH  077%=      5-min Rain = 0
KLA1 151405Z 30002KT 03/M01 A3027 RMK A01 T00311006  RH  077%=      5-min Rain = 0
KLA1 151406Z 30003KT 03/M01 A3027 RMK A01 T00311007  RH  076%=      5-min Rain = 0
KLA1 151407Z 31003KT 03/M01 A3028 RMK A01 T00311007  RH  076%=      5-min Rain = 0
KLA1 151408Z 30003KT 03/M01 A3028 RMK A01 T00311006  RH  076%=      5-min Rain = 0
KLA1 151409Z 30003KT 03/M01 A3028 RMK A01 T00311006  RH  076%=      5-min Rain = 0
KLA1 151410Z 29004KT 03/M01 A3028 RMK A01 T00321005  RH  077%=      5-min Rain = 0
KLA1 151411Z 29004KT 03/M01 A3028 RMK A01 T00321005  RH  077%=      5-min Rain = 0
KLA1 151412Z 28003KT 03/M01 A3028 RMK A01 T00321005  RH  077%=      5-min Rain = 0
KLA1 151413Z 29003KT 03/M01 A3028 RMK A01 T00321005  RH  077%=      5-min Rain = 0
KLA1 151414Z 29003KT 03/M01 A3028 RMK A01 T00321005  RH  077%=      5-min Rain = 0
KLA1 151415Z 28002KT 03/M01 A3028 RMK A01 T00321005  RH  077%=      5-min Rain = 0
KLA1 151416Z 28003KT 03/M00 A3028 RMK A01 T00321004  RH  077%=      5-min Rain = 0
KLA1 151417Z 29002KT 03/M00 A3028 RMK A01 T00321003  RH  077%=      5-min Rain = 0
KLA1 151418Z 30002KT 03/M00 A3028 RMK A01 T00331003  RH  077%=      5-min Rain = 0
KLA1 151419Z 29002KT 03/M00 A3028 RMK A01 T00331002  RH  078%=      5-min Rain = 0
KLA1 151420Z 29002KT 03/M00 A3028 RMK A01 T00341002  RH  077%=      5-min Rain = 0
KLA1 151421Z 29003KT 03/M00 A3029 RMK A01 T00341002  RH  077%=      5-min Rain = 0
KLA1 151422Z 29002KT 03/M00 A3029 RMK A01 T00341002  RH  077%=      5-min Rain = 0
KLA1 151423Z 29002KT 03/M00 A3029 RMK A01 T00341002  RH  077%=      5-min Rain = 0
KLA1 151424Z 29003KT 04/M00 A3029 RMK A01 T00351001  RH  077%=      5-min Rain = 0
KLA1 151425Z 29003KT 04/M00 A3029 RMK A01 T00351001  RH  077%=      5-min Rain = 0
KLA1 151426Z 29002KT 04/M00 A3029 RMK A01 T00351001  RH  077%=      5-min Rain = 0
KLA1 151427Z 28002KT 04/M00 A3029 RMK A01 T00361001  RH  077%=      5-min Rain = 0
KLA1 151428Z 28003KT 04/00 A3029 RMK A01 T00370000  RH  077%=      5-min Rain = 0
KLA1 151429Z 29003KT 04/00 A3029 RMK A01 T00380000  RH  077%=      5-min Rain = 0
KLA1 151430Z 30002KT 04/M00 A3029 RMK A01 T00381001  RH  076%=      5-min Rain = 0
KLA1 151431Z 29002KT 04/M00 A3029 RMK A01 T00391001  RH  075%=      5-min Rain = 0
KLA1 151432Z 30002KT 04/M00 A3029 RMK A01 T00401001  RH  075%=      5-min Rain = 0
KLA1 151433Z 31002KT 04/00 A3029 RMK A01 T004000-0  RH  075%=      5-min Rain = 0
KLA1 151434Z 31001KT 04/00 A3029 RMK A01 T004100-0  RH  075%=      5-min Rain = 0
KLA1 151435Z 31002KT 04/00 A3029 RMK A01 T00420001  RH  075%=      5-min Rain = 0
KLA1 151436Z 31002KT 04/00 A3029 RMK A01 T00420000  RH  074%=      5-min Rain = 0
KLA1 151437Z 30002KT 04/00 A3029 RMK A01 T00430001  RH  074%=      5-min Rain = 0
KLA1 151438Z 29002KT 04/00 A3029 RMK A01 T00430000  RH  074%=      5-min Rain = 0
KLA1 151439Z 29002KT 04/00 A3029 RMK A01 T00440000  RH  073%=      5-min Rain = 0
KLA1 151440Z 29003KT 04/00 A3029 RMK A01 T00440000  RH  073%=      5-min Rain = 0
KLA1 151441Z 28002KT 05/00 A3029 RMK A01 T00450000  RH  073%=      5-min Rain = 0
KLA1 151442Z 28002KT 05/00 A3029 RMK A01 T00460002  RH  073%=      5-min Rain = 0
KLA1 151443Z 28003KT 05/00 A3029 RMK A01 T00480003  RH  073%=      5-min Rain = 0
KLA1 151444Z 28003KT 05/00 A3029 RMK A01 T00490003  RH  072%=      5-min Rain = 0
KLA1 151445Z 29003KT 05/00 A3029 RMK A01 T00500003  RH  072%=      5-min Rain = 0
KLA1 151446Z 30003KT 05/00 A3029 RMK A01 T00500002  RH  071%=      5-min Rain = 0
KLA1 151447Z 29003KT 05/00 A3029 RMK A01 T00500001  RH  070%=      5-min Rain = 0
KLA1 151448Z 29003KT 05/00 A3029 RMK A01 T00500002  RH  071%=      5-min Rain = 0
KLA1 151449Z 29002KT 05/00 A3029 RMK A01 T00510001  RH  070%=      5-min Rain = 0
KLA1 151450Z 30003KT 05/00 A3029 RMK A01 T00520003  RH  070%=      5-min Rain = 0
KLA1 151451Z 30003KT 05/00 A3029 RMK A01 T00530001  RH  069%=      5-min Rain = 0
KLA1 151452Z 31003KT 05/00 A3029 RMK A01 T00540001  RH  069%=      5-min Rain = 0
KLA1 151453Z 32004KT 06/M00 A3029 RMK A01 T00551003  RH  066%=      5-min Rain = 0
KLA1 151454Z 31004KT 06/M00 A3029 RMK A01 T00551004  RH  066%=      5-min Rain = 0
KLA1 151455Z 32004KT 06/M00 A3029 RMK A01 T00561003  RH  066%=      5-min Rain = 0
KLA1 151456Z 30004KT 06/M00 A3029 RMK A01 T00571004  RH  065%=      5-min Rain = 0
KLA1 151457Z 31003KT 06/M00 A3029 RMK A01 T00581003  RH  065%=      5-min Rain = 0
KLA1 151458Z 30003KT 06/M00 A303 RMK A01 T00591001  RH  065%=      5-min Rain = 0
KLA1 151459Z 31003KT 06/M00 A303 RMK A01 T00601002  RH  065%=      5-min Rain = 0
KLA1 151500Z 29003KT 06/M00 A303 RMK A01 T00601004  RH  064%=      5-min Rain = 0
KLA1 151501Z 33004KT 06/M00 A303 RMK A01 T00601003  RH  064%=      5-min Rain = 0
KLA1 151502Z 31004KT 06/M00 A303 RMK A01 T00601003  RH  064%=      5-min Rain = 0
KLA1 151503Z 31004KT 06/M00 A303 RMK A01 T00611002  RH  064%=      5-min Rain = 0
KLA1 151504Z 31004KT 06/M01 A303 RMK A01 T00611005  RH  062%=      5-min Rain = 0
KLA1 151505Z 31004KT 06/M01 A303 RMK A01 T00611006  RH  062%=      5-min Rain = 0
KLA1 151506Z 29004KT 06/M01 A303 RMK A01 T00611006  RH  062%=      5-min Rain = 0
KLA1 151507Z 28005KT 06/M01 A303 RMK A01 T00621006  RH  062%=      5-min Rain = 0
KLA1 151508Z 28005KT 06/M01 A303 RMK A01 T00621007  RH  061%=      5-min Rain = 0
KLA1 151509Z 28003KT 06/M01 A303 RMK A01 T00621006  RH  061%=      5-min Rain = 0
KLA1 151510Z 29003KT 06/M01 A303 RMK A01 T00621005  RH  062%=      5-min Rain = 0
KLA1 151511Z 28003KT 06/M00 A303 RMK A01 T00641003  RH  062%=      5-min Rain = 0
KLA1 151512Z 29005KT 07/M00 A303 RMK A01 T00651004  RH  062%=      5-min Rain = 0
KLA1 151513Z 28006KT 07/M00 A303 RMK A01 T00671004  RH  061%=      5-min Rain = 0
KLA1 151514Z 30006KT 07/M01 A303 RMK A01 T00681005  RH  060%=      5-min Rain = 0
KLA1 151515Z 29006KT 07/M01 A303 RMK A01 T00701005  RH  059%=      5-min Rain = 0
KLA1 151516Z 29008KT 07/M01 A303 RMK A01 T00711005  RH  059%=      5-min Rain = 0
KLA1 151517Z 28007KT 07/M01 A303 RMK A01 T00711006  RH  058%=      5-min Rain = 0
KLA1 151518Z 29009KT 07/M01 A303 RMK A01 T00721007  RH  057%=      5-min Rain = 0
KLA1 151519Z 30007KT 07/M01 A303 RMK A01 T00721007  RH  057%=      5-min Rain = 0
KLA1 151520Z 30007KT 07/M00 A303 RMK A01 T00731003  RH  058%=      5-min Rain = 0
KLA1 151521Z 31008KT 07/M01 A303 RMK A01 T00741005  RH  057%=      5-min Rain = 0
KLA1 151522Z 31009KT 07/M01 A303 RMK A01 T00741007  RH  056%=      5-min Rain = 0
KLA1 151523Z 30009KT 07/M01 A303 RMK A01 T00741008  RH  056%=      5-min Rain = 0
KLA1 151524Z 30007KT 07/M01 A303 RMK A01 T00741008  RH  056%=      5-min Rain = 0
KLA1 151525Z 31008KT 07/M01 A303 RMK A01 T00731009  RH  056%=      5-min Rain = 0
KLA1 151526Z 31007KT 07/M01 A303 RMK A01 T00731010  RH  056%=      5-min Rain = 0
KLA1 151527Z 32007KT 07/M01 A303 RMK A01 T00731008  RH  056%=      5-min Rain = 0
KLA1 151528Z 31009KT 08/M01 A303 RMK A01 T00751007  RH  056%=      5-min Rain = 0
KLA1 151529Z 30010KT 08/M01 A303 RMK A01 T00751008  RH  055%=      5-min Rain = 0
KLA1 151530Z 30007KT 08/M01 A303 RMK A01 T00751009  RH  055%=      5-min Rain = 0
KLA1 151531Z 30007KT 08/M01 A303 RMK A01 T00761007  RH  056%=      5-min Rain = 0
KLA1 151532Z 29008KT 08/M01 A303 RMK A01 T00761007  RH  056%=      5-min Rain = 0
KLA1 151533Z 29008KT 08/M01 A303 RMK A01 T00761008  RH  055%=      5-min Rain = 0
KLA1 151534Z 31007KT 08/M01 A303 RMK A01 T00771006  RH  056%=      5-min Rain = 0
KLA1 151535Z 29006KT 08/M00 A303 RMK A01 T00781004  RH  056%=      5-min Rain = 0
KLA1 151536Z 28007KT 08/M00 A303 RMK A01 T00791003  RH  056%=      5-min Rain = 0
KLA1 151537Z 30005KT 08/M00 A303 RMK A01 T00791003  RH  056%=      5-min Rain = 0
KLA1 151538Z 29006KT 08/M00 A303 RMK A01 T00791004  RH  056%=      5-min Rain = 0
KLA1 151539Z 31007KT 08/M01 A303 RMK A01 T00791005  RH  055%=      5-min Rain = 0
KLA1 151540Z 31007KT 08/M01 A303 RMK A01 T00801006  RH  055%=      5-min Rain = 0
KLA1 151541Z 28009KT 08/M01 A303 RMK A01 T00801007  RH  054%=      5-min Rain = 0
KLA1 151542Z 29008KT 08/M01 A303 RMK A01 T00801009  RH  053%=      5-min Rain = 0
KLA1 151543Z 29007KT 08/M01 A303 RMK A01 T00811008  RH  053%=      5-min Rain = 0
KLA1 151544Z 30005KT 08/M01 A303 RMK A01 T00801009  RH  053%=      5-min Rain = 0
KLA1 151545Z 30006KT 08/M01 A303 RMK A01 T00811009  RH  053%=      5-min Rain = 0
KLA1 151546Z 30007KT 08/M01 A303 RMK A01 T00811008  RH  053%=      5-min Rain = 0
KLA1 151547Z 29008KT 08/M01 A303 RMK A01 T00811008  RH  053%=      5-min Rain = 0
KLA1 151548Z 30008KT 08/M01 A303 RMK A01 T00811010  RH  053%=      5-min Rain = 0
KLA1 151549Z 30007KT 08/M01 A303 RMK A01 T00811009  RH  053%=      5-min Rain = 0
KLA1 151550Z 31008KT 08/M01 A303 RMK A01 T00821007  RH  053%=      5-min Rain = 0
KLA1 151551Z 32008KT 08/M01 A303 RMK A01 T00831006  RH  053%=      5-min Rain = 0
KLA1 151552Z 31006KT 08/M01 A303 RMK A01 T00841010  RH  052%=      5-min Rain = 0
KLA1 151553Z 30007KT 08/M01 A303 RMK A01 T00831009  RH  052%=      5-min Rain = 0
KLA1 151554Z 31007KT 08/M01 A303 RMK A01 T00831008  RH  052%=      5-min Rain = 0
KLA1 151555Z 30010KT 08/M01 A303 RMK A01 T00841006  RH  053%=      5-min Rain = 0
KLA1 151556Z 30008KT 09/M01 A303 RMK A01 T00851005  RH  053%=      5-min Rain = 0
KLA1 151557Z 30008KT 09/M01 A303 RMK A01 T00861008  RH  052%=      5-min Rain = 0
KLA1 151558Z 30009KT 09/M01 A303 RMK A01 T00851009  RH  051%=      5-min Rain = 0
KLA1 151559Z 30010KT 09/M01 A303 RMK A01 T00851009  RH  052%=      5-min Rain = 0
KLA1 151600Z 30010KT 08/M01 A303 RMK A01 T00841010  RH  051%=      5-min Rain = 0
KLA1 151601Z 30008KT 08/M01 A303 RMK A01 T00841009  RH  052%=      5-min Rain = 0
KLA1 151602Z 31009KT 09/M01 A303 RMK A01 T00851010  RH  052%=      5-min Rain = 0
KLA1 151603Z 31006KT 09/M01 A303 RMK A01 T00851010  RH  052%=      5-min Rain = 0
KLA1 151604Z 29007KT 09/M01 A303 RMK A01 T00851006  RH  052%=      5-min Rain = 0
KLA1 151605Z 31008KT 09/M01 A303 RMK A01 T00871008  RH  051%=      5-min Rain = 0
KLA1 151606Z 32006KT 09/M01 A303 RMK A01 T00871010  RH  051%=      5-min Rain = 0
KLA1 151607Z 30008KT 09/M01 A303 RMK A01 T00871007  RH  052%=      5-min Rain = 0
KLA1 151608Z 30008KT 09/M01 A303 RMK A01 T00891006  RH  051%=      5-min Rain = 0
KLA1 151609Z 30009KT 09/M01 A303 RMK A01 T00891008  RH  051%=      5-min Rain = 0
KLA1 151610Z 31009KT 09/M01 A303 RMK A01 T00881010  RH  050%=      5-min Rain = 0
KLA1 151611Z 32007KT 09/M01 A303 RMK A01 T00881011  RH  050%=      5-min Rain = 0
KLA1 151612Z 30008KT 09/M01 A303 RMK A01 T00881009  RH  051%=      5-min Rain = 0
KLA1 151613Z 31009KT 09/M01 A303 RMK A01 T00881009  RH  050%=      5-min Rain = 0
KLA1 151614Z 31005KT 09/M01 A303 RMK A01 T00881010  RH  050%=      5-min Rain = 0
KLA1 151615Z 30007KT 09/M01 A303 RMK A01 T00891006  RH  051%=      5-min Rain = 0
KLA1 151616Z 30008KT 09/M01 A303 RMK A01 T00911006  RH  051%=      5-min Rain = 0
KLA1 151617Z 31010KT 09/M01 A303 RMK A01 T00921006  RH  050%=      5-min Rain = 0
KLA1 151618Z 31009KT 09/M00 A303 RMK A01 T00941003  RH  051%=      5-min Rain = 0
KLA1 151619Z 31007KT 09/M01 A303 RMK A01 T00931009  RH  049%=      5-min Rain = 0
KLA1 151620Z 30005KT 09/M01 A303 RMK A01 T00921008  RH  050%=      5-min Rain = 0
KLA1 151621Z 32006KT 09/M01 A303 RMK A01 T00931007  RH  050%=      5-min Rain = 0
KLA1 151622Z 29007KT 09/M00 A303 RMK A01 T00941002  RH  051%=      5-min Rain = 0
KLA1 151623Z 30006KT 10/M01 A303 RMK A01 T00961005  RH  049%=      5-min Rain = 0
KLA1 151624Z 29008KT 10/M01 A303 RMK A01 T00961006  RH  049%=      5-min Rain = 0
KLA1 151625Z 29009KT 10/M01 A303 RMK A01 T00961006  RH  049%=      5-min Rain = 0
KLA1 151626Z 29006KT 10/M01 A303 RMK A01 T00951008  RH  049%=      5-min Rain = 0
KLA1 151627Z 29006KT 10/M00 A303 RMK A01 T00961004  RH  050%=      5-min Rain = 0
KLA1 151628Z 30010KT 10/M00 A303 RMK A01 T00981004  RH  049%=      5-min Rain = 0
KLA1 151629Z 31010KT 10/M01 A303 RMK A01 T00981006  RH  048%=      5-min Rain = 0
KLA1 151630Z 31008KT 10/M01 A303 RMK A01 T00981005  RH  049%=      5-min Rain = 0
KLA1 151631Z 32006KT 10/M01 A303 RMK A01 T00981006  RH  048%=      5-min Rain = 0
KLA1 151632Z 31006KT 10/M01 A303 RMK A01 T00981007  RH  048%=      5-min Rain = 0
KLA1 151633Z 29008KT 10/M01 A303 RMK A01 T00981005  RH  049%=      5-min Rain = 0
KLA1 151634Z 30008KT 10/M01 A303 RMK A01 T00991007  RH  048%=      5-min Rain = 0
KLA1 151635Z 29008KT 10/M01 A303 RMK A01 T00971008  RH  048%=      5-min Rain = 0
KLA1 151636Z 29006KT 10/M01 A303 RMK A01 T00971009  RH  048%=      5-min Rain = 0
KLA1 151637Z 30008KT 10/M01 A303 RMK A01 T00971005  RH  049%=      5-min Rain = 0
KLA1 151638Z 30008KT 10/M01 A303 RMK A01 T00981005  RH  048%=      5-min Rain = 0
KLA1 151639Z 31007KT 10/M01 A303 RMK A01 T00991005  RH  048%=      5-min Rain = 0
KLA1 151640Z 32008KT 10/M00 A303 RMK A01 T01001004  RH  048%=      5-min Rain = 0
KLA1 151641Z 31008KT 10/M01 A3029 RMK A01 T01001006  RH  048%=      5-min Rain = 0
KLA1 151642Z 29009KT 10/M01 A3029 RMK A01 T01011005  RH  048%=      5-min Rain = 0
KLA1 151643Z 28008KT 10/M00 A3029 RMK A01 T01011004  RH  048%=      5-min Rain = 0
KLA1 151644Z 28007KT 10/M01 A3029 RMK A01 T01011006  RH  047%=      5-min Rain = 0
KLA1 151645Z 30008KT 10/M00 A3029 RMK A01 T01011003  RH  048%=      5-min Rain = 0
KLA1 151646Z 29008KT 10/M00 A3029 RMK A01 T01031001  RH  049%=      5-min Rain = 0
KLA1 151647Z 29007KT 10/M01 A3029 RMK A01 T01021006  RH  047%=      5-min Rain = 0
KLA1 151648Z 28005KT 10/M00 A3029 RMK A01 T01021003  RH  048%=      5-min Rain = 0
KLA1 151649Z 29007KT 10/M00 A3029 RMK A01 T01021002  RH  048%=      5-min Rain = 0
KLA1 151650Z 29008KT 10/M01 A3029 RMK A01 T01031005  RH  047%=      5-min Rain = 0
KLA1 151651Z 29008KT 10/M01 A3029 RMK A01 T01031007  RH  046%=      5-min Rain = 0
KLA1 151652Z 28007KT 10/M01 A3029 RMK A01 T01021006  RH  047%=      5-min Rain = 0
KLA1 151653Z 29006KT 10/M00 A3029 RMK A01 T01021002  RH  048%=      5-min Rain = 0
KLA1 151654Z 31005KT 11/M00 A3029 RMK A01 T01051001  RH  048%=      5-min Rain = 0
KLA1 151655Z 30004KT 11/M00 A3029 RMK A01 T01061001  RH  048%=      5-min Rain = 0
KLA1 151656Z 31006KT 11/00 A3029 RMK A01 T01070001  RH  048%=      5-min Rain = 0
KLA1 151657Z 30005KT 11/00 A3029 RMK A01 T01080000  RH  047%=      5-min Rain = 0
KLA1 151658Z 32009KT 11/M00 A3029 RMK A01 T01081001  RH  047%=      5-min Rain = 0
KLA1 151659Z 31006KT 11/M00 A3029 RMK A01 T01091004  RH  046%=      5-min Rain = 0
KLA1 151700Z 32003KT 11/M01 A3029 RMK A01 T01071006  RH  045%=      5-min Rain = 0
KLA1 151701Z 30002KT 11/M01 A3029 RMK A01 T01061007  RH  045%=      5-min Rain = 0
KLA1 151702Z 32005KT 11/M00 A3029 RMK A01 T01071002  RH  047%=      5-min Rain = 0
KLA1 151703Z 30006KT 11/M00 A3029 RMK A01 T01081003  RH  046%=      5-min Rain = 0
KLA1 151704Z 30008KT 11/M00 A3029 RMK A01 T01091001  RH  047%=      5-min Rain = 0
KLA1 151705Z 30008KT 11/00 A3029 RMK A01 T01100001  RH  047%=      5-min Rain = 0
KLA1 151706Z 30006KT 11/M00 A3029 RMK A01 T01101001  RH  046%=      5-min Rain = 0
KLA1 151707Z 31008KT 11/00 A3029 RMK A01 T01110002  RH  047%=      5-min Rain = 0
KLA1 151708Z 33005KT 11/M00 A3029 RMK A01 T01121001  RH  046%=      5-min Rain = 0
KLA1 151709Z 31004KT 11/00 A3029 RMK A01 T01120002  RH  047%=      5-min Rain = 0
KLA1 151710Z 30007KT 11/00 A3029 RMK A01 T01130002  RH  046%=      5-min Rain = 0
KLA1 151711Z 29007KT 11/M00 A3029 RMK A01 T01141001  RH  045%=      5-min Rain = 0
KLA1 151712Z 31010KT 11/00 A3029 RMK A01 T011400-0  RH  045%=      5-min Rain = 0
KLA1 151713Z 31008KT 11/M00 A3029 RMK A01 T01131004  RH  044%=      5-min Rain = 0
KLA1 151714Z 33006KT 11/M00 A3029 RMK A01 T01121003  RH  045%=      5-min Rain = 0
KLA1 151715Z 31007KT 11/M01 A3029 RMK A01 T01111005  RH  044%=      5-min Rain = 0
KLA1 151716Z 32009KT 11/M00 A3029 RMK A01 T01121003  RH  045%=      5-min Rain = 0
KLA1 151717Z 33007KT 11/M01 A3029 RMK A01 T01121006  RH  044%=      5-min Rain = 0
KLA1 151718Z 33004KT 11/M01 A3029 RMK A01 T01121005  RH  044%=      5-min Rain = 0
KLA1 151719Z 33003KT 11/M00 A3029 RMK A01 T01121004  RH  045%=      5-min Rain = 0
KLA1 151720Z 30006KT 11/M01 A3029 RMK A01 T01141006  RH  044%=      5-min Rain = 0
KLA1 151721Z 29008KT 12/00 A3029 RMK A01 T01150000  RH  045%=      5-min Rain = 0
KLA1 151722Z 31006KT 12/M00 A3029 RMK A01 T01161004  RH  044%=      5-min Rain = 0
KLA1 151723Z 31007KT 12/00 A3028 RMK A01 T01150001  RH  045%=      5-min Rain = 0
KLA1 151724Z 31006KT 12/M00 A3028 RMK A01 T01161001  RH  045%=      5-min Rain = 0
KLA1 151725Z 29007KT 12/00 A3028 RMK A01 T01160001  RH  045%=      5-min Rain = 0
KLA1 151726Z 31007KT 12/00 A3028 RMK A01 T011600-0  RH  045%=      5-min Rain = 0
KLA1 151727Z 30003KT 12/00 A3028 RMK A01 T01160002  RH  045%=      5-min Rain = 0
KLA1 151728Z 31005KT 12/00 A3028 RMK A01 T01170003  RH  046%=      5-min Rain = 0
KLA1 151729Z 30006KT 12/00 A3028 RMK A01 T011800-0  RH  044%=      5-min Rain = 0
KLA1 151730Z 30004KT 12/00 A3028 RMK A01 T011700-0  RH  044%=      5-min Rain = 0
KLA1 151731Z 32004KT 12/M00 A3028 RMK A01 T01171002  RH  044%=      5-min Rain = 0
KLA1 151732Z 36005KT 12/M01 A3028 RMK A01 T01171005  RH  043%=      5-min Rain = 0
KLA1 151733Z 35003KT 12/M01 A3028 RMK A01 T01181005  RH  043%=      5-min Rain = 0
KLA1 151734Z 32006KT 12/M01 A3028 RMK A01 T01171008  RH  042%=      5-min Rain = 0
KLA1 151735Z 30006KT 12/M01 A3028 RMK A01 T01161007  RH  042%=      5-min Rain = 0
KLA1 151736Z 32004KT 12/M01 A3028 RMK A01 T01161005  RH  043%=      5-min Rain = 0
KLA1 151737Z 32004KT 12/M00 A3028 RMK A01 T01181003  RH  043%=      5-min Rain = 0
KLA1 151738Z 00003KT 12/M00 A3028 RMK A01 T01201001  RH  043%=      5-min Rain = 0
KLA1 151739Z 00008KT 12/M00 A3028 RMK A01 T01221001  RH  043%=      5-min Rain = 0
KLA1 151740Z 36010KT 13/M00 A3028 RMK A01 T01251003  RH  041%=      5-min Rain = 0
KLA1 151741Z 36006KT 12/M00 A3028 RMK A01 T01231004  RH  042%=      5-min Rain = 0
KLA1 151742Z 03006KT 12/M01 A3028 RMK A01 T01231005  RH  041%=      5-min Rain = 0
KLA1 151743Z 01005KT 12/M01 A3028 RMK A01 T01221008  RH  040%=      5-min Rain = 0
KLA1 151744Z 01006KT 12/M00 A3028 RMK A01 T01211003  RH  042%=      5-min Rain = 0
KLA1 151745Z 01007KT 12/M01 A3027 RMK A01 T01211005  RH  042%=      5-min Rain = 0
KLA1 151746Z 01007KT 12/M00 A3027 RMK A01 T01221001  RH  043%=      5-min Rain = 0
KLA1 151747Z 00007KT 12/M00 A3027 RMK A01 T01231004  RH  042%=      5-min Rain = 0
KLA1 151748Z 34007KT 12/M00 A3027 RMK A01 T01231004  RH  042%=      5-min Rain = 0
KLA1 151749Z 33006KT 13/00 A3027 RMK A01 T01260001  RH  042%=      5-min Rain = 0
KLA1 151750Z 31008KT 13/00 A3027 RMK A01 T01280001  RH  042%=      5-min Rain = 0
KLA1 151751Z 35007KT 13/M00 A3027 RMK A01 T01281001  RH  041%=      5-min Rain = 0
KLA1 151752Z 02006KT 13/M00 A3027 RMK A01 T01271004  RH  040%=      5-min Rain = 0
KLA1 151753Z 36007KT 13/00 A3027 RMK A01 T01280004  RH  043%=      5-min Rain = 0
KLA1 151754Z 32006KT 13/00 A3027 RMK A01 T01300003  RH  042%=      5-min Rain = 0
KLA1 151755Z 33006KT 13/M00 A3027 RMK A01 T01311001  RH  040%=      5-min Rain = 0
KLA1 151756Z 33007KT 13/M01 A3027 RMK A01 T01291006  RH  039%=      5-min Rain = 0
KLA1 151757Z 32006G11KT 13/M01 A3027 RMK A01 T01261008  RH  040%=      5-min Rain = 0
KLA1 151758Z 31010KT 13/M00 A3027 RMK A01 T01251003  RH  041%=      5-min Rain = 0
KLA1 151759Z 02006KT 13/00 A3027 RMK A01 T012600-0  RH  042%=      5-min Rain = 0
KLA1 151800Z 01008KT 13/00 A3027 RMK A01 T01280001  RH  042%=      5-min Rain = 0
KLA1 151801Z 01009KT 13/M00 A3027 RMK A01 T01311001  RH  040%=      5-min Rain = 0
KLA1 151802Z 00010KT 13/M01 A3027 RMK A01 T01301005  RH  039%=      5-min Rain = 0
KLA1 151803Z 35007KT 13/M01 A3027 RMK A01 T01291007  RH  039%=      5-min Rain = 0
KLA1 151804Z 00012KT 13/M01 A3027 RMK A01 T01291006  RH  039%=      5-min Rain = 0
KLA1 151805Z 36010KT 13/M01 A3027 RMK A01 T01291006  RH  039%=      5-min Rain = 0
KLA1 151806Z 00009KT 13/M00 A3027 RMK A01 T01291003  RH  040%=      5-min Rain = 0
KLA1 151807Z 00006KT 13/M01 A3027 RMK A01 T01301007  RH  039%=      5-min Rain = 0
KLA1 151808Z 02009KT 13/M01 A3027 RMK A01 T01281005  RH  040%=      5-min Rain = 0
KLA1 151809Z 02006KT 13/M01 A3026 RMK A01 T01271006  RH  040%=      5-min Rain = 0
KLA1 151810Z 01007KT 13/M00 A3026 RMK A01 T01271002  RH  041%=      5-min Rain = 0
KLA1 151811Z 32007KT 13/M00 A3026 RMK A01 T01291002  RH  040%=      5-min Rain = 0
KLA1 151812Z 31008KT 13/M00 A3026 RMK A01 T01301001  RH  041%=      5-min Rain = 0
KLA1 151813Z 31006KT 13/M00 A3026 RMK A01 T01311001  RH  040%=      5-min Rain = 0
KLA1 151814Z 33003KT 13/00 A3026 RMK A01 T01310001  RH  041%=      5-min Rain = 0
KLA1 151815Z 01009KT 13/00 A3026 RMK A01 T01330002  RH  040%=      5-min Rain = 0
KLA1 151816Z 36008KT 13/M01 A3026 RMK A01 T01331006  RH  038%=      5-min Rain = 0
KLA1 151817Z 00009KT 13/M01 A3026 RMK A01 T01321006  RH  038%=      5-min Rain = 0
KLA1 151818Z 32008KT 13/M01 A3026 RMK A01 T01331006  RH  038%=      5-min Rain = 0
KLA1 151819Z 32011KT 13/M01 A3026 RMK A01 T01331005  RH  039%=      5-min Rain = 0
KLA1 151820Z 36007KT 13/00 A3026 RMK A01 T01340002  RH  040%=      5-min Rain = 0
KLA1 151821Z 35007KT 14/00 A3026 RMK A01 T013600-0  RH  039%=      5-min Rain = 0
KLA1 151822Z 32007KT 14/M00 A3026 RMK A01 T01371001  RH  039%=      5-min Rain = 0
KLA1 151823Z 30008KT 14/M00 A3026 RMK A01 T01361003  RH  038%=      5-min Rain = 0
KLA1 151824Z 30008KT 14/00 A3026 RMK A01 T01350000  RH  039%=      5-min Rain = 0
KLA1 151825Z 32008KT 14/00 A3026 RMK A01 T01350002  RH  040%=      5-min Rain = 0
KLA1 151826Z 00010KT 14/M00 A3026 RMK A01 T01351003  RH  039%=      5-min Rain = 0
KLA1 151827Z 36007KT 14/M01 A3026 RMK A01 T01351012  RH  036%=      5-min Rain = 0
KLA1 151828Z 33008KT 13/M01 A3026 RMK A01 T01331014  RH  036%=      5-min Rain = 0
KLA1 151829Z 32007KT 13/M01 A3025 RMK A01 T01321009  RH  038%=      5-min Rain = 0
KLA1 151830Z 01008KT 14/M01 A3025 RMK A01 T01351006  RH  038%=      5-min Rain = 0
KLA1 151831Z 00009KT 14/M01 A3025 RMK A01 T01361013  RH  036%=      5-min Rain = 0
KLA1 151832Z 36011KT 14/M01 A3025 RMK A01 T01361013  RH  036%=      5-min Rain = 0
KLA1 151833Z 35009KT 14/M01 A3025 RMK A01 T01351013  RH  036%=      5-min Rain = 0
KLA1 151834Z 00007KT 14/M02 A3025 RMK A01 T01351016  RH  035%=      5-min Rain = 0
KLA1 151835Z 36006KT 14/M01 A3025 RMK A01 T01351011  RH  036%=      5-min Rain = 0
KLA1 151836Z 00007KT 14/M01 A3025 RMK A01 T01351010  RH  037%=      5-min Rain = 0
KLA1 151837Z 01008G13KT 14/M00 A3025 RMK A01 T01371004  RH  038%=      5-min Rain = 0
KLA1 151838Z 34007G14KT 14/M01 A3025 RMK A01 T01381006  RH  037%=      5-min Rain = 0
KLA1 151839Z 33009KT 14/M01 A3025 RMK A01 T01381007  RH  037%=      5-min Rain = 0
KLA1 151840Z 31009KT 14/M01 A3025 RMK A01 T01371010  RH  036%=      5-min Rain = 0
KLA1 151841Z 34006KT 14/M01 A3024 RMK A01 T01361012  RH  036%=      5-min Rain = 0
KLA1 151842Z 33006KT 13/M01 A3024 RMK A01 T01341014  RH  036%=      5-min Rain = 0
KLA1 151843Z 35009KT 14/M01 A3025 RMK A01 T01351007  RH  038%=      5-min Rain = 0
KLA1 151844Z 00008KT 14/M01 A3024 RMK A01 T01371005  RH  038%=      5-min Rain = 0
KLA1 151845Z 36008KT 14/M01 A3024 RMK A01 T01381005  RH  037%=      5-min Rain = 0
KLA1 151846Z 35005KT 14/M01 A3024 RMK A01 T01381008  RH  037%=      5-min Rain = 0
KLA1 151847Z 35007KT 14/M01 A3025 RMK A01 T01391008  RH  036%=      5-min Rain = 0
KLA1 151848Z 36009KT 14/M01 A3024 RMK A01 T01401005  RH  037%=      5-min Rain = 0
KLA1 151849Z 33008KT 14/M00 A3024 RMK A01 T01391004  RH  037%=      5-min Rain = 0
KLA1 151850Z 31006G11KT 14/M00 A3024 RMK A01 T01411003  RH  037%=      5-min Rain = 0
KLA1 151851Z 32006KT 14/M01 A3024 RMK A01 T01411005  RH  037%=      5-min Rain = 0
KLA1 151852Z 34007G12KT 14/M00 A3024 RMK A01 T01401004  RH  037%=      5-min Rain = 0
KLA1 151853Z 31009KT 14/M00 A3024 RMK A01 T01401003  RH  038%=      5-min Rain = 0
KLA1 151854Z 32005KT 14/M00 A3024 RMK A01 T01401001  RH  038%=      5-min Rain = 0
KLA1 151855Z 33006KT 14/M01 A3024 RMK A01 T01391007  RH  037%=      5-min Rain = 0
KLA1 151856Z 32006KT 14/M00 A3024 RMK A01 T01381004  RH  038%=      5-min Rain = 0
KLA1 151857Z 30004KT 14/M00 A3024 RMK A01 T01381004  RH  038%=      5-min Rain = 0
KLA1 151858Z 33004KT 14/M00 A3024 RMK A01 T01391003  RH  038%=      5-min Rain = 0
KLA1 151859Z 06005KT 14/M00 A3024 RMK A01 T01391003  RH  038%=      5-min Rain = 0
KLA1 151900Z 33008KT 14/M00 A3024 RMK A01 T01411002  RH  038%=      5-min Rain = 0
KLA1 151901Z 33008G15KT 14/M00 A3024 RMK A01 T01411002  RH  038%=      5-min Rain = 0
KLA1 151902Z 32011KT 14/00 A3024 RMK A01 T01410001  RH  038%=      5-min Rain = 0
KLA1 151903Z 33007KT 14/00 A3024 RMK A01 T01420001  RH  038%=      5-min Rain = 0
KLA1 151904Z 32011KT 14/00 A3024 RMK A01 T01420000  RH  038%=      5-min Rain = 0
KLA1 151905Z 31011KT 14/M00 A3024 RMK A01 T01411003  RH  037%=      5-min Rain = 0
KLA1 151906Z 35009KT 14/M00 A3024 RMK A01 T01391003  RH  038%=      5-min Rain = 0
KLA1 151907Z 01007KT 14/M01 A3024 RMK A01 T01381005  RH  037%=      5-min Rain = 0
KLA1 151908Z 01007KT 14/M00 A3024 RMK A01 T01371004  RH  038%=      5-min Rain = 0
KLA1 151909Z 02006KT 14/M00 A3024 RMK A01 T01361002  RH  039%=      5-min Rain = 0
KLA1 151910Z 01006KT 14/M00 A3024 RMK A01 T01381004  RH  038%=      5-min Rain = 0
KLA1 151911Z 35005KT 14/M01 A3023 RMK A01 T01371007  RH  037%=      5-min Rain = 0
KLA1 151912Z 33003KT 14/M01 A3023 RMK A01 T01371006  RH  037%=      5-min Rain = 0
KLA1 151913Z 33004KT 14/M01 A3023 RMK A01 T01371005  RH  038%=      5-min Rain = 0
KLA1 151914Z 30003KT 14/M01 A3023 RMK A01 T01371008  RH  037%=      5-min Rain = 0
KLA1 151915Z 30002KT 14/M01 A3023 RMK A01 T01371010  RH  036%=      5-min Rain = 0
KLA1 151916Z 32003KT 14/M01 A3023 RMK A01 T01371011  RH  036%=      5-min Rain = 0
KLA1 151917Z 31008KT 14/M00 A3023 RMK A01 T01371001  RH  039%=      5-min Rain = 0
KLA1 151918Z 30010G15KT 14/00 A3023 RMK A01 T01400004  RH  039%=      5-min Rain = 0
KLA1 151919Z 29007KT 14/00 A3023 RMK A01 T01410001  RH  038%=      5-min Rain = 0
KLA1 151920Z 29006KT 14/01 A3023 RMK A01 T01410007  RH  040%=      5-min Rain = 0
KLA1 151921Z 30004KT 14/00 A3023 RMK A01 T01420000  RH  038%=      5-min Rain = 0
KLA1 151922Z 32011KT 14/00 A3022 RMK A01 T01420004  RH  039%=      5-min Rain = 0
KLA1 151923Z 31011KT 14/00 A3022 RMK A01 T01430003  RH  038%=      5-min Rain = 0
KLA1 151924Z 30009KT 14/00 A3022 RMK A01 T01420002  RH  038%=      5-min Rain = 0
KLA1 151925Z 31010KT 14/00 A3022 RMK A01 T01400001  RH  038%=      5-min Rain = 0
KLA1 151926Z 31009KT 14/00 A3022 RMK A01 T01390002  RH  039%=      5-min Rain = 0
KLA1 151927Z 32008KT 14/00 A3022 RMK A01 T013900-0  RH  038%=      5-min Rain = 0
KLA1 151928Z 30008KT 14/01 A3022 RMK A01 T01400006  RH  040%=      5-min Rain = 0
KLA1 151929Z 32007KT 14/01 A3022 RMK A01 T01420006  RH  040%=      5-min Rain = 0
KLA1 151930Z 32003KT 14/00 A3022 RMK A01 T01430001  RH  038%=      5-min Rain = 0
KLA1 151931Z 33004KT 14/M00 A3022 RMK A01 T01421001  RH  037%=      5-min Rain = 0
KLA1 151932Z 34005G10KT 14/00 A3022 RMK A01 T01420004  RH  039%=      5-min Rain = 0
KLA1 151933Z 00009KT 14/00 A3022 RMK A01 T01430002  RH  038%=      5-min Rain = 0
KLA1 151934Z 34004KT 14/M00 A3022 RMK A01 T01431004  RH  036%=      5-min Rain = 0
KLA1 151935Z 31007KT 14/M00 A3022 RMK A01 T01421003  RH  037%=      5-min Rain = 0
KLA1 151936Z 33009KT 14/M00 A3022 RMK A01 T01431004  RH  037%=      5-min Rain = 0
KLA1 151937Z 35011KT 14/M01 A3022 RMK A01 T01431006  RH  036%=      5-min Rain = 0
KLA1 151938Z 00009KT 14/M01 A3022 RMK A01 T01431006  RH  036%=      5-min Rain = 0
KLA1 151939Z 01009KT 15/M01 A3022 RMK A01 T01451005  RH  036%=      5-min Rain = 0
KLA1 151940Z 01010KT 15/M01 A3022 RMK A01 T01451008  RH  035%=      5-min Rain = 0
KLA1 151941Z 01010KT 14/M01 A3022 RMK A01 T01441007  RH  035%=      5-min Rain = 0
KLA1 151942Z 00007KT 14/M01 A3022 RMK A01 T01441005  RH  036%=      5-min Rain = 0
KLA1 151943Z 00006KT 15/M01 A3022 RMK A01 T01451006  RH  036%=      5-min Rain = 0
KLA1 151944Z 01006KT 15/M01 A3022 RMK A01 T01451009  RH  035%=      5-min Rain = 0
KLA1 151945Z 02009KT 15/M01 A3022 RMK A01 T01451008  RH  035%=      5-min Rain = 0
KLA1 151946Z 35006KT 15/M01 A3022 RMK A01 T01451011  RH  034%=      5-min Rain = 0
KLA1 151947Z 33006KT 15/M01 A3021 RMK A01 T01451013  RH  034%=      5-min Rain = 0
KLA1 151948Z 34006G11KT 15/M01 A3021 RMK A01 T01451013  RH  034%=      5-min Rain = 0
KLA1 151949Z 00010KT 15/M01 A3021 RMK A01 T01471010  RH  034%=      5-min Rain = 0
KLA1 151950Z 35010KT 15/M01 A3021 RMK A01 T01481011  RH  034%=      5-min Rain = 0
KLA1 151951Z 35008G13KT 15/M02 A3021 RMK A01 T01481017  RH  032%=      5-min Rain = 0
KLA1 151952Z 36005KT 15/M02 A3021 RMK A01 T01461017  RH  032%=      5-min Rain = 0
KLA1 151953Z 01010KT 15/M01 A3021 RMK A01 T01451014  RH  033%=      5-min Rain = 0
KLA1 151954Z 35008KT 15/M02 A3021 RMK A01 T01461019  RH  032%=      5-min Rain = 0
KLA1 151955Z 01006KT 15/M02 A3021 RMK A01 T01461016  RH  033%=      5-min Rain = 0
KLA1 151956Z 03007KT 15/M01 A3021 RMK A01 T01471012  RH  033%=      5-min Rain = 0
KLA1 151957Z 04005KT 15/M01 A3021 RMK A01 T01481013  RH  033%=      5-min Rain = 0
KLA1 151958Z 01003KT 15/M02 A3021 RMK A01 T01481016  RH  032%=      5-min Rain = 0
KLA1 151959Z 35002KT 15/M01 A3021 RMK A01 T01471012  RH  034%=      5-min Rain = 0
KLA1 152000Z 02004KT 15/M01 A3021 RMK A01 T01471014  RH  033%=      5-min Rain = 0
KLA1 152001Z 03002KT 15/M01 A3021 RMK A01 T01471010  RH  034%=      5-min Rain = 0
KLA1 152002Z 28002KT 15/M02 A3021 RMK A01 T01471017  RH  032%=      5-min Rain = 0
KLA1 152003Z 27004KT 15/M01 A3021 RMK A01 T01471014  RH  033%=      5-min Rain = 0
KLA1 152004Z 28003KT 15/M01 A3021 RMK A01 T01471011  RH  034%=      5-min Rain = 0
KLA1 152005Z 31006KT 15/M01 A3021 RMK A01 T01471006  RH  035%=      5-min Rain = 0
KLA1 152006Z 33006G11KT 15/M01 A3021 RMK A01 T01491005  RH  035%=      5-min Rain = 0
KLA1 152007Z 32004KT 15/M01 A3021 RMK A01 T01501013  RH  033%=      5-min Rain = 0
KLA1 152008Z 34003KT 15/M02 A3021 RMK A01 T01481015  RH  032%=      5-min Rain = 0
KLA1 152009Z 35007KT 15/M01 A3021 RMK A01 T01481009  RH  034%=      5-min Rain = 0
KLA1 152010Z 35008KT 15/M01 A3021 RMK A01 T01491008  RH  034%=      5-min Rain = 0
KLA1 152011Z 35008KT 15/M02 A3021 RMK A01 T01491015  RH  032%=      5-min Rain = 0
KLA1 152012Z 00005G10KT 15/M01 A3021 RMK A01 T01481014  RH  033%=      5-min Rain = 0
KLA1 152013Z 35006KT 15/M02 A3021 RMK A01 T01471018  RH  032%=      5-min Rain = 0
KLA1 152014Z 33005KT 15/M02 A3021 RMK A01 T01461018  RH  032%=      5-min Rain = 0
KLA1 152015Z 32004KT 15/M02 A302 RMK A01 T01451017  RH  033%=      5-min Rain = 0
KLA1 152016Z 01006KT 15/M01 A302 RMK A01 T01461008  RH  035%=      5-min Rain = 0
KLA1 152017Z 01006KT 15/M01 A302 RMK A01 T01481014  RH  033%=      5-min Rain = 0
KLA1 152018Z 36008KT 15/M02 A302 RMK A01 T01481016  RH  032%=      5-min Rain = 0
KLA1 152019Z 01010KT 15/M01 A302 RMK A01 T01491009  RH  034%=      5-min Rain = 0
KLA1 152020Z 34008KT 15/M01 A302 RMK A01 T01511009  RH  033%=      5-min Rain = 0
KLA1 152021Z 02006KT 15/M01 A302 RMK A01 T01521009  RH  033%=      5-min Rain = 0
KLA1 152022Z 03005KT 15/M02 A302 RMK A01 T01501015  RH  032%=      5-min Rain = 0
KLA1 152023Z 06002KT 15/M01 A302 RMK A01 T01481012  RH  033%=      5-min Rain = 0
KLA1 152024Z 02005KT 15/M01 A302 RMK A01 T01491006  RH  034%=      5-min Rain = 0
KLA1 152025Z 35004KT 15/M01 A302 RMK A01 T01511005  RH  034%=      5-min Rain = 0
KLA1 152026Z 28004KT 15/M01 A302 RMK A01 T01521009  RH  033%=      5-min Rain = 0
KLA1 152027Z 27006KT 15/M01 A302 RMK A01 T01511009  RH  033%=      5-min Rain = 0
KLA1 152028Z 26005KT 15/M01 A302 RMK A01 T01501008  RH  034%=      5-min Rain = 0
KLA1 152029Z 27005KT 15/M01 A302 RMK A01 T01501013  RH  033%=      5-min Rain = 0
KLA1 152030Z 27005KT 15/M01 A302 RMK A01 T01481013  RH  033%=      5-min Rain = 0
KLA1 152031Z 28004KT 15/M01 A302 RMK A01 T01471014  RH  033%=      5-min Rain = 0
KLA1 152032Z 29005KT 15/M01 A302 RMK A01 T01481008  RH  034%=      5-min Rain = 0
KLA1 152033Z 27004KT 15/M01 A302 RMK A01 T01501008  RH  034%=      5-min Rain = 0
KLA1 152034Z 28004KT 15/M01 A302 RMK A01 T01511010  RH  033%=      5-min Rain = 0
KLA1 152035Z 34007KT 15/M01 A302 RMK A01 T01521006  RH  034%=      5-min Rain = 0
KLA1 152036Z 36008KT 15/M01 A302 RMK A01 T01521014  RH  032%=      5-min Rain = 0
KLA1 152037Z 32007KT 15/M01 A302 RMK A01 T01511013  RH  032%=      5-min Rain = 0
KLA1 152038Z 32005KT 15/M02 A3019 RMK A01 T01501015  RH  032%=      5-min Rain = 0
KLA1 152039Z 31006KT 15/M01 A3019 RMK A01 T01491014  RH  033%=      5-min Rain = 0
KLA1 152040Z 27004KT 15/M02 A3019 RMK A01 T01481017  RH  032%=      5-min Rain = 0
KLA1 152041Z 29001KT 15/M02 A3019 RMK A01 T01471015  RH  033%=      5-min Rain = 0
KLA1 152042Z 33008KT 15/M01 A3019 RMK A01 T01471008  RH  035%=      5-min Rain = 0
KLA1 152043Z 32005KT 15/M01 A3019 RMK A01 T01501010  RH  033%=      5-min Rain = 0
KLA1 152044Z 33005KT 15/M01 A3019 RMK A01 T01511011  RH  033%=      5-min Rain = 0
KLA1 152045Z 30004KT 15/M01 A3019 RMK A01 T01511012  RH  033%=      5-min Rain = 0
KLA1 152046Z 28003KT 15/M02 A3019 RMK A01 T01511015  RH  032%=      5-min Rain = 0
KLA1 152047Z 34002KT 15/M01 A3019 RMK A01 T01501012  RH  033%=      5-min Rain = 0
KLA1 152048Z 00007G12KT 15/M00 A3019 RMK A01 T01521001  RH  035%=      5-min Rain = 0
KLA1 152049Z 01007KT 15/M01 A3019 RMK A01 T01541008  RH  033%=      5-min Rain = 0
KLA1 152050Z 00007KT 16/M01 A3019 RMK A01 T01551011  RH  032%=      5-min Rain = 0
KLA1 152051Z 33005KT 15/M01 A3019 RMK A01 T01541010  RH  033%=      5-min Rain = 0
KLA1 152052Z 31008KT 15/M01 A3019 RMK A01 T01541009  RH  033%=      5-min Rain = 0
KLA1 152053Z 30009KT 15/M01 A3018 RMK A01 T01541009  RH  033%=      5-min Rain = 0
KLA1 152054Z 29007KT 15/M01 A3018 RMK A01 T01541010  RH  033%=      5-min Rain = 0
KLA1 152055Z 30007KT 15/M01 A3018 RMK A01 T01531006  RH  034%=      5-min Rain = 0
KLA1 152056Z 31007KT 15/M01 A3018 RMK A01 T01541005  RH  034%=      5-min Rain = 0
KLA1 152057Z 35006KT 16/M01 A3018 RMK A01 T01551009  RH  033%=      5-min Rain = 0
KLA1 152058Z 35004KT 15/M01 A3018 RMK A01 T01541013  RH  032%=      5-min Rain = 0
KLA1 152059Z 03003KT 15/M01 A3018 RMK A01 T01531013  RH  032%=      5-min Rain = 0
KLA1 152100Z 02002KT 15/M01 A3018 RMK A01 T01521014  RH  032%=      5-min Rain = 0
KLA1 152101Z 34003KT 15/M01 A3018 RMK A01 T01521013  RH  032%=      5-min Rain = 0
KLA1 152102Z 36003KT 15/M01 A3018 RMK A01 T01521009  RH  033%=      5-min Rain = 0
KLA1 152103Z 33008KT 16/M01 A3018 RMK A01 T01551006  RH  033%=      5-min Rain = 0
KLA1 152104Z 35008KT 16/M01 A3018 RMK A01 T01561006  RH  033%=      5-min Rain = 0
KLA1 152105Z 33008KT 16/M00 A3018 RMK A01 T01581003  RH  033%=      5-min Rain = 0
KLA1 152106Z 32010KT 16/M01 A3018 RMK A01 T01581007  RH  032%=      5-min Rain = 0
KLA1 152107Z 32010KT 16/M01 A3018 RMK A01 T01561009  RH  032%=      5-min Rain = 0
KLA1 152108Z 32008KT 16/M00 A3018 RMK A01 T01551004  RH  034%=      5-min Rain = 0
KLA1 152109Z 31008KT 16/M01 A3018 RMK A01 T01561007  RH  033%=      5-min Rain = 0
KLA1 152110Z 32007KT 16/M01 A3018 RMK A01 T01561011  RH  032%=      5-min Rain = 0
KLA1 152111Z 31008KT 15/M01 A3018 RMK A01 T01541009  RH  033%=      5-min Rain = 0
KLA1 152112Z 30008KT 15/M01 A3017 RMK A01 T01541007  RH  033%=      5-min Rain = 0
KLA1 152113Z 31009KT 15/M01 A3017 RMK A01 T01541009  RH  033%=      5-min Rain = 0
KLA1 152114Z 32008KT 15/M01 A3017 RMK A01 T01541011  RH  032%=      5-min Rain = 0
KLA1 152115Z 31004KT 15/M02 A3017 RMK A01 T01541015  RH  031%=      5-min Rain = 0
KLA1 152116Z 31004KT 15/M02 A3017 RMK A01 T01531018  RH  031%=      5-min Rain = 0
KLA1 152117Z 29007KT 15/M02 A3017 RMK A01 T01511016  RH  032%=      5-min Rain = 0
KLA1 152118Z 29004KT 15/M01 A3017 RMK A01 T01511013  RH  032%=      5-min Rain = 0
KLA1 152119Z 28003KT 15/M02 A3017 RMK A01 T01521017  RH  031%=      5-min Rain = 0
KLA1 152120Z 29003KT 15/M01 A3017 RMK A01 T01521010  RH  033%=      5-min Rain = 0
KLA1 152121Z 36007KT 15/M01 A3017 RMK A01 T01531007  RH  033%=      5-min Rain = 0
KLA1 152122Z 01009KT 15/M01 A3017 RMK A01 T01541009  RH  033%=      5-min Rain = 0
KLA1 152123Z 36008KT 15/M01 A3017 RMK A01 T01541012  RH  032%=      5-min Rain = 0
KLA1 152124Z 01004KT 15/M01 A3017 RMK A01 T01541010  RH  032%=      5-min Rain = 0
KLA1 152125Z 00005KT 15/M01 A3017 RMK A01 T01541010  RH  032%=      5-min Rain = 0
KLA1 152126Z 02007KT 16/M01 A3017 RMK A01 T01551007  RH  033%=      5-min Rain = 0
KLA1 152127Z 36007G12KT 16/M01 A3017 RMK A01 T01551007  RH  033%=      5-min Rain = 0
KLA1 152128Z 01005KT 16/M01 A3017 RMK A01 T01561007  RH  033%=      5-min Rain = 0
KLA1 152129Z 02005KT 16/M01 A3017 RMK A01 T01561006  RH  033%=      5-min Rain = 0
KLA1 152130Z 03004KT 16/M01 A3017 RMK A01 T01551011  RH  032%=      5-min Rain = 0
KLA1 152131Z 02004KT 16/M01 A3017 RMK A01 T01551011  RH  032%=      5-min Rain = 0
KLA1 152132Z 01005KT 15/M01 A3017 RMK A01 T01541008  RH  033%=      5-min Rain = 0
KLA1 152133Z 02004KT 16/M01 A3017 RMK A01 T01551007  RH  033%=      5-min Rain = 0
KLA1 152134Z 03002KT 16/M01 A3017 RMK A01 T01551014  RH  031%=      5-min Rain = 0
KLA1 152135Z 35002KT 15/M01 A3017 RMK A01 T01541011  RH  032%=      5-min Rain = 0
KLA1 152136Z 00005KT 15/M01 A3017 RMK A01 T01541013  RH  032%=      5-min Rain = 0
KLA1 152137Z 00004KT 15/M01 A3017 RMK A01 T01541010  RH  032%=      5-min Rain = 0
KLA1 152138Z 35004KT 15/M01 A3016 RMK A01 T01541010  RH  033%=      5-min Rain = 0
KLA1 152139Z 33005KT 15/M02 A3016 RMK A01 T01531015  RH  032%=      5-min Rain = 0
KLA1 152140Z 32002KT 15/M02 A3016 RMK A01 T01511017  RH  031%=      5-min Rain = 0
KLA1 152141Z 17001KT 15/M02 A3016 RMK A01 T01501020  RH  031%=      5-min Rain = 0
KLA1 152142Z 07001KT 15/M01 A3016 RMK A01 T01501013  RH  032%=      5-min Rain = 0
KLA1 152143Z 07004KT 15/M01 A3016 RMK A01 T01511011  RH  033%=      5-min Rain = 0
KLA1 152144Z 04003KT 15/M01 A3016 RMK A01 T01531008  RH  033%=      5-min Rain = 0
KLA1 152145Z 05002KT 15/M02 A3016 RMK A01 T01541015  RH  031%=      5-min Rain = 0
KLA1 152146Z 01005KT 15/M01 A3016 RMK A01 T01541012  RH  032%=      5-min Rain = 0
KLA1 152147Z 03006KT 16/M01 A3016 RMK A01 T01551009  RH  033%=      5-min Rain = 0
KLA1 152148Z 04003KT 16/M01 A3016 RMK A01 T01561009  RH  032%=      5-min Rain = 0
KLA1 152149Z 35004KT 16/M01 A3016 RMK A01 T01561005  RH  033%=      5-min Rain = 0
KLA1 152150Z 34006KT 16/M01 A3016 RMK A01 T01561009  RH  032%=      5-min Rain = 0
KLA1 152151Z 32004KT 16/M01 A3016 RMK A01 T01561011  RH  032%=      5-min Rain = 0
KLA1 152152Z 01004KT 16/M01 A3016 RMK A01 T01551013  RH  032%=      5-min Rain = 0
KLA1 152153Z 03005KT 16/M01 A3016 RMK A01 T01551006  RH  033%=      5-min Rain = 0
KLA1 152154Z 03007KT 16/M01 A3016 RMK A01 T01561008  RH  033%=      5-min Rain = 0
KLA1 152155Z 33007KT 16/M00 A3016 RMK A01 T01571004  RH  033%=      5-min Rain = 0
KLA1 152156Z 32008KT 16/M01 A3015 RMK A01 T01581007  RH  032%=      5-min Rain = 0
KLA1 152157Z 32007KT 16/M00 A3016 RMK A01 T01571004  RH  033%=      5-min Rain = 0
KLA1 152158Z 30004KT 16/M01 A3015 RMK A01 T01571010  RH  032%=      5-min Rain = 0
KLA1 152159Z 27003KT 16/M01 A3015 RMK A01 T01561010  RH  032%=      5-min Rain = 0
KLA1 152200Z 31004KT 16/M01 A3015 RMK A01 T01561007  RH  033%=      5-min Rain = 0
KLA1 152201Z 34007G12KT 16/00 A3015 RMK A01 T015700-0  RH  034%=      5-min Rain = 0
KLA1 152202Z 01008KT 16/M01 A3015 RMK A01 T01581005  RH  033%=      5-min Rain = 0
KLA1 152203Z 01003KT 16/M01 A3015 RMK A01 T01571010  RH  032%=      5-min Rain = 0
KLA1 152204Z 34004G10KT 16/M01 A3015 RMK A01 T01551010  RH  032%=      5-min Rain = 0
KLA1 152205Z 35007KT 16/M01 A3015 RMK A01 T01551008  RH  033%=      5-min Rain = 0
KLA1 152206Z 35005KT 16/M01 A3015 RMK A01 T01551009  RH  033%=      5-min Rain = 0
KLA1 152207Z 02002KT 15/M01 A3015 RMK A01 T01541012  RH  032%=      5-min Rain = 0
KLA1 152208Z 05001KT 15/M01 A3015 RMK A01 T01531014  RH  032%=      5-min Rain = 0
KLA1 152209Z 08001KT 15/M02 A3015 RMK A01 T01521016  RH  031%=      5-min Rain = 0
KLA1 152210Z 01001KT 15/M01 A3015 RMK A01 T01511014  RH  032%=      5-min Rain = 0
KLA1 152211Z 34002KT 15/M01 A3015 RMK A01 T01521011  RH  033%=      5-min Rain = 0
KLA1 152212Z 30003KT 15/M01 A3015 RMK A01 T01541007  RH  033%=      5-min Rain = 0
KLA1 152213Z 30003KT 16/M01 A3015 RMK A01 T01561007  RH  033%=      5-min Rain = 0
KLA1 152214Z 34002KT 16/M00 A3015 RMK A01 T01571004  RH  033%=      5-min Rain = 0
KLA1 152215Z 00003KT 16/M01 A3015 RMK A01 T01581007  RH  032%=      5-min Rain = 0
KLA1 152216Z 35004KT 16/M00 A3015 RMK A01 T01591002  RH  034%=      5-min Rain = 0
KLA1 152217Z 01007KT 16/M01 A3015 RMK A01 T01601005  RH  033%=      5-min Rain = 0
KLA1 152218Z 32009G14KT 16/00 A3014 RMK A01 T01600001  RH  034%=      5-min Rain = 0
KLA1 152219Z 26010KT 16/00 A3015 RMK A01 T01620002  RH  034%=      5-min Rain = 0
KLA1 152220Z 26010KT 16/M00 A3015 RMK A01 T01611002  RH  033%=      5-min Rain = 0
KLA1 152221Z 27009KT 16/M00 A3015 RMK A01 T01591003  RH  033%=      5-min Rain = 0
KLA1 152222Z 28008KT 16/M00 A3015 RMK A01 T01571003  RH  033%=      5-min Rain = 0
KLA1 152223Z 30006KT 16/00 A3015 RMK A01 T01570002  RH  035%=      5-min Rain = 0
KLA1 152224Z 31005KT 16/01 A3015 RMK A01 T01590006  RH  035%=      5-min Rain = 0
KLA1 152225Z 35005KT 16/00 A3015 RMK A01 T016100-0  RH  033%=      5-min Rain = 0
KLA1 152226Z 32006KT 16/M00 A3015 RMK A01 T01611002  RH  033%=      5-min Rain = 0
KLA1 152227Z 32006KT 16/M01 A3015 RMK A01 T01611005  RH  032%=      5-min Rain = 0
KLA1 152228Z 32006KT 16/M01 A3015 RMK A01 T01601006  RH  032%=      5-min Rain = 0
KLA1 152229Z 31003KT 16/M00 A3015 RMK A01 T01591003  RH  033%=      5-min Rain = 0
KLA1 152230Z 35004KT 16/M00 A3015 RMK A01 T01591003  RH  033%=      5-min Rain = 0
KLA1 152231Z 34006KT 16/M01 A3015 RMK A01 T01601006  RH  032%=      5-min Rain = 0
KLA1 152232Z 36004KT 16/M00 A3015 RMK A01 T01591004  RH  033%=      5-min Rain = 0
KLA1 152233Z 00005KT 16/M00 A3015 RMK A01 T01601001  RH  033%=      5-min Rain = 0
KLA1 152234Z 33003KT 16/M01 A3015 RMK A01 T01601006  RH  032%=      5-min Rain = 0
KLA1 152235Z 01003KT 16/M01 A3015 RMK A01 T01601007  RH  032%=      5-min Rain = 0
KLA1 152236Z 02003KT 16/M01 A3015 RMK A01 T01591010  RH  031%=      5-min Rain = 0
KLA1 152237Z 02003KT 16/M01 A3015 RMK A01 T01581007  RH  032%=      5-min Rain = 0
KLA1 152238Z 32002KT 16/M00 A3015 RMK A01 T01581003  RH  033%=      5-min Rain = 0
KLA1 152239Z 31004KT 16/M00 A3015 RMK A01 T01591004  RH  033%=      5-min Rain = 0
KLA1 152240Z 34005KT 16/M01 A3015 RMK A01 T01601005  RH  032%=      5-min Rain = 0
KLA1 152241Z 34003KT 16/M00 A3015 RMK A01 T01601004  RH  033%=      5-min Rain = 0
KLA1 152242Z 33002KT 16/M00 A3015 RMK A01 T01611002  RH  033%=      5-min Rain = 0
KLA1 152243Z 30004KT 16/M00 A3015 RMK A01 T01611001  RH  033%=      5-min Rain = 0
KLA1 152244Z 31003KT 16/M00 A3015 RMK A01 T01611003  RH  033%=      5-min Rain = 0
KLA1 152245Z 36004KT 16/00 A3015 RMK A01 T01600000  RH  034%=      5-min Rain = 0
KLA1 152246Z 00003KT 16/M00 A3015 RMK A01 T01601003  RH  033%=      5-min Rain = 0
KLA1 152247Z 02002KT 16/M01 A3015 RMK A01 T01611005  RH  032%=      5-min Rain = 0
KLA1 152248Z 31003KT 16/M00 A3015 RMK A01 T01601004  RH  033%=      5-min Rain = 0
KLA1 152249Z 30003KT 16/M00 A3015 RMK A01 T01611004  RH  033%=      5-min Rain = 0
KLA1 152250Z 30004KT 16/M01 A3015 RMK A01 T01611005  RH  032%=      5-min Rain = 0
KLA1 152251Z 29006G11KT 16/M01 A3015 RMK A01 T01611006  RH  032%=      5-min Rain = 0
KLA1 152252Z 31008KT 16/M00 A3015 RMK A01 T01611004  RH  033%=      5-min Rain = 0
KLA1 152253Z 33005KT 16/M00 A3015 RMK A01 T01611001  RH  033%=      5-min Rain = 0
KLA1 152254Z 33004KT 16/00 A3015 RMK A01 T01630000  RH  033%=      5-min Rain = 0
KLA1 152255Z 35005KT 16/M00 A3015 RMK A01 T01641004  RH  032%=      5-min Rain = 0
KLA1 152256Z 34005G10KT 16/M01 A3015 RMK A01 T01631006  RH  031%=      5-min Rain = 0
KLA1 152257Z 35008KT 16/M01 A3015 RMK A01 T01621008  RH  031%=      5-min Rain = 0
KLA1 152258Z 35009KT 16/M01 A3015 RMK A01 T01591013  RH  031%=      5-min Rain = 0
KLA1 152259Z 00007KT 16/M01 A3015 RMK A01 T01581011  RH  032%=      5-min Rain = 0
KLA1 152300Z 00005KT 16/M01 A3015 RMK A01 T01571012  RH  032%=      5-min Rain = 0
KLA1 152301Z 34004KT 16/M01 A3015 RMK A01 T01561011  RH  032%=      5-min Rain = 0
KLA1 152302Z 36005KT 16/M01 A3015 RMK A01 T01561010  RH  032%=      5-min Rain = 0
KLA1 152303Z 02007KT 16/M01 A3015 RMK A01 T01571008  RH  032%=      5-min Rain = 0
KLA1 152304Z 01004KT 16/M01 A3015 RMK A01 T01571011  RH  032%=      5-min Rain = 0
KLA1 152305Z 34004KT 16/M01 A3015 RMK A01 T01571008  RH  032%=      5-min Rain = 0
KLA1 152306Z 34004KT 16/M01 A3015 RMK A01 T01571012  RH  031%=      5-min Rain = 0
KLA1 152307Z 31005KT 16/M01 A3015 RMK A01 T01571011  RH  032%=      5-min Rain = 0
KLA1 152308Z 33005KT 16/M01 A3015 RMK A01 T01571009  RH  032%=      5-min Rain = 0
KLA1 152309Z 35005KT 16/M01 A3015 RMK A01 T01581008  RH  032%=      5-min Rain = 0
KLA1 152310Z 36007G12KT 16/M01 A3015 RMK A01 T01581013  RH  031%=      5-min Rain = 0
KLA1 152311Z 36009KT 16/M01 A3015 RMK A01 T01571011  RH  032%=      5-min Rain = 0
KLA1 152312Z 36008KT 16/M01 A3015 RMK A01 T01561009  RH  032%=      5-min Rain = 0
KLA1 152313Z 35007KT 16/M01 A3015 RMK A01 T01561011  RH  032%=      5-min Rain = 0
KLA1 152314Z 35007KT 16/M01 A3015 RMK A01 T01551011  RH  032%=      5-min Rain = 0
KLA1 152315Z 36005KT 15/M01 A3015 RMK A01 T01541010  RH  032%=      5-min Rain = 0
KLA1 152316Z 00006KT 15/M01 A3015 RMK A01 T01541008  RH  033%=      5-min Rain = 0
KLA1 152317Z 35004KT 16/M01 A3015 RMK A01 T01551013  RH  032%=      5-min Rain = 0
KLA1 152318Z 35007KT 16/M01 A3015 RMK A01 T01551011  RH  032%=      5-min Rain = 0
KLA1 152319Z 01006KT 16/M01 A3015 RMK A01 T01551012  RH  032%=      5-min Rain = 0
KLA1 152320Z 01004KT 15/M01 A3015 RMK A01 T01541012  RH  032%=      5-min Rain = 0
KLA1 152321Z 36008KT 15/M01 A3015 RMK A01 T01541009  RH  033%=      5-min Rain = 0
KLA1 152322Z 00010KT 15/M01 A3015 RMK A01 T01541010  RH  033%=      5-min Rain = 0
KLA1 152323Z 36006KT 15/M01 A3015 RMK A01 T01531012  RH  032%=      5-min Rain = 0
KLA1 152324Z 36008KT 15/M01 A3015 RMK A01 T01531010  RH  033%=      5-min Rain = 0
KLA1 152325Z 00007KT 15/M01 A3015 RMK A01 T01531008  RH  033%=      5-min Rain = 0
KLA1 152326Z 35008KT 15/M01 A3015 RMK A01 T01541008  RH  033%=      5-min Rain = 0
KLA1 152327Z 36008KT 15/M01 A3015 RMK A01 T01541008  RH  033%=      5-min Rain = 0
KLA1 152328Z 00007KT 15/M01 A3015 RMK A01 T01531011  RH  032%=      5-min Rain = 0
KLA1 152329Z 35006KT 15/M01 A3015 RMK A01 T01531011  RH  033%=      5-min Rain = 0
KLA1 152330Z 36007KT 15/M01 A3015 RMK A01 T01531009  RH  033%=      5-min Rain = 0
KLA1 152331Z 35008KT 15/M01 A3015 RMK A01 T01531011  RH  033%=      5-min Rain = 0
KLA1 152332Z 35008KT 15/M01 A3015 RMK A01 T01521011  RH  033%=      5-min Rain = 0
KLA1 152333Z 35007KT 15/M01 A3015 RMK A01 T01521009  RH  033%=      5-min Rain = 0
KLA1 152334Z 35006KT 15/M01 A3015 RMK A01 T01521008  RH  033%=      5-min Rain = 0
KLA1 152335Z 34009KT 15/M01 A3015 RMK A01 T01521009  RH  033%=      5-min Rain = 0
KLA1 152336Z 35005KT 15/M01 A3015 RMK A01 T01521008  RH  033%=      5-min Rain = 0
KLA1 152337Z 36004KT 15/M01 A3015 RMK A01 T01521009  RH  033%=      5-min Rain = 0
KLA1 152338Z 36006KT 15/M01 A3015 RMK A01 T01521012  RH  033%=      5-min Rain = 0
KLA1 152339Z 35007KT 15/M01 A3015 RMK A01 T01511009  RH  033%=      5-min Rain = 0
KLA1 152340Z 00006KT 15/M01 A3015 RMK A01 T01511008  RH  034%=      5-min Rain = 0
KLA1 152341Z 35004KT 15/M01 A3015 RMK A01 T01501010  RH  033%=      5-min Rain = 0
KLA1 152342Z 34004KT 15/M01 A3015 RMK A01 T01501012  RH  033%=      5-min Rain = 0
KLA1 152343Z 35002KT 15/M01 A3015 RMK A01 T01491013  RH  033%=      5-min Rain = 0
KLA1 152344Z 32003KT 15/M01 A3015 RMK A01 T01491009  RH  034%=      5-min Rain = 0
KLA1 152345Z 32005KT 15/M01 A3015 RMK A01 T01491011  RH  033%=      5-min Rain = 0
KLA1 152346Z 35003KT 15/M01 A3015 RMK A01 T01491011  RH  033%=      5-min Rain = 0
KLA1 152347Z 02004KT 15/M01 A3015 RMK A01 T01481007  RH  034%=      5-min Rain = 0
KLA1 152348Z 36006KT 15/M00 A3015 RMK A01 T01471004  RH  035%=      5-min Rain = 0
KLA1 152349Z 00008KT 15/M01 A3015 RMK A01 T01471007  RH  035%=      5-min Rain = 0
KLA1 152350Z 35007KT 15/M01 A3015 RMK A01 T01461008  RH  035%=      5-min Rain = 0
KLA1 152351Z 36006KT 15/M01 A3015 RMK A01 T01451008  RH  035%=      5-min Rain = 0
KLA1 152352Z 35005KT 14/M01 A3015 RMK A01 T01441006  RH  036%=      5-min Rain = 0
KLA1 152353Z 01004KT 14/M01 A3015 RMK A01 T01431010  RH  035%=      5-min Rain = 0
KLA1 152354Z 02004KT 14/M01 A3015 RMK A01 T01431014  RH  034%=      5-min Rain = 0
KLA1 152355Z 01003KT 14/M01 A3015 RMK A01 T01431009  RH  035%=      5-min Rain = 0
KLA1 152356Z 01004KT 14/M01 A3015 RMK A01 T01421007  RH  036%=      5-min Rain = 0
KLA1 152357Z 01003KT 14/M01 A3015 RMK A01 T01421005  RH  037%=      5-min Rain = 0
KLA1 152358Z 36006KT 14/M01 A3015 RMK A01 T01411005  RH  037%=      5-min Rain = 0
KLA1 152359Z 36005KT 14/M01 A3015 RMK A01 T01401006  RH  037%=      5-min Rain = 0
KLA1 160000Z 36006KT 14/M01 A3015 RMK A01 T01391005  RH  037%=      5-min Rain = 0
KLA1 160001Z 01006KT 14/M00 A3015 RMK A01 T01391002  RH  038%=      5-min Rain = 0
KLA1 160002Z 01005KT 14/M00 A3015 RMK A01 T01381004  RH  038%=      5-min Rain = 0
KLA1 160003Z 01005KT 14/M00 A3015 RMK A01 T01381004  RH  038%=      5-min Rain = 0
KLA1 160004Z 02005KT 14/M00 A3015 RMK A01 T01381004  RH  038%=      5-min Rain = 0
KLA1 160005Z 02005KT 14/M01 A3015 RMK A01 T01371006  RH  037%=      5-min Rain = 0
KLA1 160006Z 02006KT 14/M00 A3015 RMK A01 T01371003  RH  038%=      5-min Rain = 0
KLA1 160007Z 02006KT 14/M01 A3015 RMK A01 T01371006  RH  037%=      5-min Rain = 0
KLA1 160008Z 01005KT 14/M01 A3015 RMK A01 T01371006  RH  037%=      5-min Rain = 0
KLA1 160009Z 02004KT 14/M00 A3015 RMK A01 T01371002  RH  038%=      5-min Rain = 0
KLA1 160010Z 01005KT 14/M00 A3015 RMK A01 T01361001  RH  039%=      5-min Rain = 0
KLA1 160011Z 00005KT 14/M00 A3015 RMK A01 T01351001  RH  039%=      5-min Rain = 0
KLA1 160012Z 00005KT 13/M00 A3015 RMK A01 T01341002  RH  039%=      5-min Rain = 0
KLA1 160013Z 00006KT 13/M00 A3015 RMK A01 T01341001  RH  039%=      5-min Rain = 0
KLA1 160014Z 00005KT 13/M00 A3015 RMK A01 T01331001  RH  040%=      5-min Rain = 0
KLA1 160015Z 36004KT 13/M00 A3015 RMK A01 T01331001  RH  040%=      5-min Rain = 0
KLA1 160016Z 36004KT 13/M00 A3015 RMK A01 T01331003  RH  039%=      5-min Rain = 0
KLA1 160017Z 36004KT 13/M00 A3015 RMK A01 T01331004  RH  039%=      5-min Rain = 0
KLA1 160018Z 00004KT 13/M01 A3015 RMK A01 T01321005  RH  039%=      5-min Rain = 0
KLA1 160019Z 00003KT 13/M00 A3015 RMK A01 T01321002  RH  039%=      5-min Rain = 0
KLA1 160020Z 36004KT 13/M00 A3015 RMK A01 T01321002  RH  040%=      5-min Rain = 0
KLA1 160021Z 01004KT 13/M00 A3015 RMK A01 T01311004  RH  040%=      5-min Rain = 0
KLA1 160022Z 01004KT 13/M00 A3015 RMK A01 T01301002  RH  040%=      5-min Rain = 0
KLA1 160023Z 00004KT 13/00 A3015 RMK A01 T01300000  RH  041%=      5-min Rain = 0
KLA1 160024Z 00003KT 13/00 A3015 RMK A01 T01290001  RH  041%=      5-min Rain = 0
KLA1 160025Z 36003KT 13/M00 A3015 RMK A01 T01281001  RH  041%=      5-min Rain = 0
KLA1 160026Z 00004KT 13/M00 A3015 RMK A01 T01271001  RH  041%=      5-min Rain = 0
KLA1 160027Z 36003KT 13/M00 A3016 RMK A01 T01271001  RH  041%=      5-min Rain = 0
KLA1 160028Z 01003KT 13/M00 A3016 RMK A01 T01271001  RH  041%=      5-min Rain = 0
KLA1 160029Z 00004KT 13/M00 A3016 RMK A01 T01261002  RH  041%=      5-min Rain = 0
KLA1 160030Z 36003KT 13/M00 A3016 RMK A01 T01261001  RH  042%=      5-min Rain = 0
KLA1 160031Z 00004KT 13/00 A3016 RMK A01 T012600-0  RH  042%=      5-min Rain = 0
KLA1 160032Z 01004KT 13/00 A3016 RMK A01 T01250000  RH  042%=      5-min Rain = 0
KLA1 160033Z 00005KT 13/00 A3016 RMK A01 T012500-0  RH  042%=      5-min Rain = 0
KLA1 160034Z 00004KT 12/00 A3016 RMK A01 T012400-0  RH  042%=      5-min Rain = 0
KLA1 160035Z 36004KT 12/00 A3016 RMK A01 T012400-0  RH  042%=      5-min Rain = 0
KLA1 160036Z 36005KT 12/M00 A3016 RMK A01 T01241001  RH  042%=      5-min Rain = 0
KLA1 160037Z 35005KT 12/M00 A3016 RMK A01 T01241001  RH  042%=      5-min Rain = 0
KLA1 160038Z 01005KT 12/M00 A3016 RMK A01 T01241001  RH  042%=      5-min Rain = 0
KLA1 160039Z 01006KT 12/M00 A3016 RMK A01 T01241001  RH  042%=      5-min Rain = 0
KLA1 160040Z 01005KT 12/00 A3016 RMK A01 T01240001  RH  043%=      5-min Rain = 0
KLA1 160041Z 01004KT 12/00 A3016 RMK A01 T01230003  RH  044%=      5-min Rain = 0
KLA1 160042Z 00005KT 12/00 A3016 RMK A01 T01220002  RH  044%=      5-min Rain = 0
KLA1 160043Z 01006KT 12/00 A3016 RMK A01 T01220001  RH  043%=      5-min Rain = 0
KLA1 160044Z 00005KT 12/00 A3016 RMK A01 T01220001  RH  043%=      5-min Rain = 0
KLA1 160045Z 00005KT 12/00 A3016 RMK A01 T01220000  RH  043%=      5-min Rain = 0
KLA1 160046Z 01005KT 12/M00 A3016 RMK A01 T01221001  RH  043%=      5-min Rain = 0
KLA1 160047Z 00006KT 12/M00 A3016 RMK A01 T01211001  RH  043%=      5-min Rain = 0
KLA1 160048Z 00005KT 12/00 A3016 RMK A01 T012200-0  RH  043%=      5-min Rain = 0
KLA1 160049Z 01005KT 12/M00 A3016 RMK A01 T01221001  RH  043%=      5-min Rain = 0
KLA1 160050Z 01005KT 12/00 A3016 RMK A01 T01210000  RH  043%=      5-min Rain = 0
KLA1 160051Z 00005KT 12/00 A3016 RMK A01 T012100-0  RH  043%=      5-min Rain = 0
KLA1 160052Z 00005KT 12/M00 A3016 RMK A01 T01211001  RH  043%=      5-min Rain = 0
KLA1 160053Z 01004KT 12/00 A3016 RMK A01 T012100-0  RH  043%=      5-min Rain = 0
KLA1 160054Z 01004KT 12/M00 A3016 RMK A01 T01201001  RH  043%=      5-min Rain = 0
KLA1 160055Z 01004KT 12/M00 A3016 RMK A01 T01201001  RH  043%=      5-min Rain = 0
KLA1 160056Z 01004KT 12/00 A3016 RMK A01 T011900-0  RH  044%=      5-min Rain = 0
KLA1 160057Z 02005KT 12/00 A3016 RMK A01 T011900-0  RH  044%=      5-min Rain = 0
KLA1 160058Z 01004KT 12/M00 A3016 RMK A01 T01181001  RH  044%=      5-min Rain = 0
KLA1 160059Z 01004KT 12/00 A3016 RMK A01 T011900-0  RH  044%=      5-min Rain = 0
KLA1 160100Z 01004KT 12/00 A3016 RMK A01 T01180000  RH  044%=      5-min Rain = 0
KLA1 160101Z 02004KT 12/00 A3016 RMK A01 T01170001  RH  045%=      5-min Rain = 0
KLA1 160102Z 01004KT 12/00 A3016 RMK A01 T01170000  RH  044%=      5-min Rain = 0
KLA1 160103Z 02004KT 12/00 A3016 RMK A01 T011700-0  RH  044%=      5-min Rain = 0
KLA1 160104Z 01004KT 12/00 A3016 RMK A01 T011700-0  RH  044%=      5-min Rain = 0
KLA1 160105Z 01004KT 12/00 A3016 RMK A01 T011600-0  RH  045%=      5-min Rain = 0
KLA1 160106Z 01004KT 12/00 A3016 RMK A01 T01150002  RH  046%=      5-min Rain = 0
KLA1 160107Z 01004KT 12/00 A3016 RMK A01 T01150004  RH  046%=      5-min Rain = 0
KLA1 160108Z 01005KT 11/00 A3016 RMK A01 T01140003  RH  046%=      5-min Rain = 0
KLA1 160109Z 02004KT 11/00 A3016 RMK A01 T01140003  RH  046%=      5-min Rain = 0
KLA1 160110Z 02005KT 11/00 A3016 RMK A01 T01130002  RH  046%=      5-min Rain = 0
KLA1 160111Z 02005KT 11/00 A3016 RMK A01 T01130002  RH  046%=      5-min Rain = 0
KLA1 160112Z 02004KT 11/00 A3016 RMK A01 T01130002  RH  046%=      5-min Rain = 0
KLA1 160113Z 02004KT 11/00 A3016 RMK A01 T01130002  RH  046%=      5-min Rain = 0
KLA1 160114Z 01004KT 11/00 A3016 RMK A01 T01130002  RH  046%=      5-min Rain = 0
KLA1 160115Z 02004KT 11/00 A3016 RMK A01 T01130002  RH  046%=      5-min Rain = 0
KLA1 160116Z 02004KT 11/00 A3016 RMK A01 T01130003  RH  047%=      5-min Rain = 0
KLA1 160117Z 02004KT 11/00 A3016 RMK A01 T01130003  RH  047%=      5-min Rain = 0
KLA1 160118Z 02005KT 11/00 A3016 RMK A01 T01130003  RH  047%=      5-min Rain = 0
KLA1 160119Z 02005KT 11/00 A3016 RMK A01 T01120003  RH  047%=      5-min Rain = 0
KLA1 160120Z 02004KT 11/00 A3016 RMK A01 T01120003  RH  047%=      5-min Rain = 0
KLA1 160121Z 01004KT 11/00 A3016 RMK A01 T01120003  RH  047%=      5-min Rain = 0
KLA1 160122Z 01004KT 11/00 A3016 RMK A01 T01120004  RH  047%=      5-min Rain = 0
KLA1 160123Z 01004KT 11/00 A3016 RMK A01 T01120004  RH  047%=      5-min Rain = 0
KLA1 160124Z 01005KT 11/00 A3016 RMK A01 T01110003  RH  047%=      5-min Rain = 0
KLA1 160125Z 02004KT 11/00 A3016 RMK A01 T01110001  RH  047%=      5-min Rain = 0
KLA1 160126Z 02005KT 11/00 A3016 RMK A01 T01120002  RH  047%=      5-min Rain = 0
KLA1 160127Z 02004KT 11/00 A3016 RMK A01 T01110003  RH  047%=      5-min Rain = 0
KLA1 160128Z 02004KT 11/00 A3016 RMK A01 T01110004  RH  048%=      5-min Rain = 0
KLA1 160129Z 01004KT 11/01 A3016 RMK A01 T01110005  RH  048%=      5-min Rain = 0
KLA1 160130Z 01004KT 11/01 A3016 RMK A01 T01110005  RH  048%=      5-min Rain = 0
KLA1 160131Z 02004KT 11/01 A3016 RMK A01 T01100005  RH  048%=      5-min Rain = 0
KLA1 160132Z 02004KT 11/01 A3017 RMK A01 T01100005  RH  048%=      5-min Rain = 0
KLA1 160133Z 00004KT 11/00 A3017 RMK A01 T01100004  RH  048%=      5-min Rain = 0
KLA1 160134Z 01004KT 11/01 A3017 RMK A01 T01100005  RH  048%=      5-min Rain = 0
KLA1 160135Z 02004KT 11/01 A3017 RMK A01 T01100005  RH  049%=      5-min Rain = 0
KLA1 160136Z 01004KT 11/01 A3017 RMK A01 T01090005  RH  049%=      5-min Rain = 0
KLA1 160137Z 01004KT 11/01 A3017 RMK A01 T01090005  RH  049%=      5-min Rain = 0
KLA1 160138Z 01005KT 11/00 A3017 RMK A01 T01090004  RH  049%=      5-min Rain = 0
KLA1 160139Z 01005KT 11/00 A3017 RMK A01 T01090004  RH  048%=      5-min Rain = 0
KLA1 160140Z 00004KT 11/00 A3017 RMK A01 T01090003  RH  048%=      5-min Rain = 0
KLA1 160141Z 01004KT 11/00 A3017 RMK A01 T01090003  RH  048%=      5-min Rain = 0
KLA1 160142Z 01005KT 11/00 A3017 RMK A01 T01090003  RH  048%=      5-min Rain = 0
KLA1 160143Z 01004KT 11/00 A3017 RMK A01 T01090004  RH  048%=      5-min Rain = 0
KLA1 160144Z 01004KT 11/01 A3017 RMK A01 T01090005  RH  049%=      5-min Rain = 0
KLA1 160145Z 01005KT 11/01 A3017 RMK A01 T01090006  RH  049%=      5-min Rain = 0
KLA1 160146Z 01004KT 11/01 A3017 RMK A01 T01080005  RH  049%=      5-min Rain = 0
KLA1 160147Z 01004KT 11/01 A3017 RMK A01 T01070005  RH  049%=      5-min Rain = 0
KLA1 160148Z 01004KT 11/01 A3017 RMK A01 T01080006  RH  049%=      5-min Rain = 0
KLA1 160149Z 01004KT 11/01 A3017 RMK A01 T01070005  RH  049%=      5-min Rain = 0
KLA1 160150Z 01004KT 11/01 A3017 RMK A01 T01070005  RH  049%=      5-min Rain = 0
KLA1 160151Z 01004KT 11/01 A3017 RMK A01 T01070005  RH  049%=      5-min Rain = 0
KLA1 160152Z 01004KT 11/01 A3017 RMK A01 T01060005  RH  050%=      5-min Rain = 0
KLA1 160153Z 02004KT 11/01 A3017 RMK A01 T01060005  RH  050%=      5-min Rain = 0
KLA1 160154Z 02004KT 11/00 A3017 RMK A01 T01050004  RH  049%=      5-min Rain = 0
KLA1 160155Z 01003KT 11/00 A3017 RMK A01 T01050003  RH  049%=      5-min Rain = 0
KLA1 160156Z 02004KT 11/00 A3017 RMK A01 T01060002  RH  049%=      5-min Rain = 0
KLA1 160157Z 01003KT 11/00 A3017 RMK A01 T01050003  RH  049%=      5-min Rain = 0
KLA1 160158Z 01004KT 11/00 A3017 RMK A01 T01050004  RH  049%=      5-min Rain = 0
KLA1 160159Z 01004KT 11/00 A3017 RMK A01 T01050003  RH  049%=      5-min Rain = 0
KLA1 160200Z 01004KT 11/00 A3017 RMK A01 T01050002  RH  049%=      5-min Rain = 0
KLA1 160201Z 00003KT 11/00 A3017 RMK A01 T01050002  RH  049%=      5-min Rain = 0
KLA1 160202Z 00003KT 11/00 A3017 RMK A01 T01050002  RH  049%=      5-min Rain = 0
KLA1 160203Z 00003KT 11/00 A3017 RMK A01 T01050001  RH  049%=      5-min Rain = 0
KLA1 160204Z 01003KT 11/00 A3017 RMK A01 T01050001  RH  049%=      5-min Rain = 0
KLA1 160205Z 01003KT 11/00 A3017 RMK A01 T01050001  RH  048%=      5-min Rain = 0
KLA1 160206Z 01003KT 11/00 A3017 RMK A01 T01050001  RH  049%=      5-min Rain = 0
KLA1 160207Z 01003KT 10/00 A3017 RMK A01 T01040001  RH  049%=      5-min Rain = 0
KLA1 160208Z 02003KT 10/00 A3017 RMK A01 T01040001  RH  049%=      5-min Rain = 0
KLA1 160209Z 02003KT 10/00 A3017 RMK A01 T01040001  RH  049%=      5-min Rain = 0
KLA1 160210Z 02002KT 10/00 A3017 RMK A01 T01040001  RH  049%=      5-min Rain = 0
KLA1 160211Z 01003KT 10/00 A3017 RMK A01 T01030001  RH  049%=      5-min Rain = 0
KLA1 160212Z 02002KT 10/M00 A3017 RMK A01 T01031001  RH  049%=      5-min Rain = 0
KLA1 160213Z 02002KT 10/M00 A3017 RMK A01 T01031001  RH  049%=      5-min Rain = 0
KLA1 160214Z 02002KT 10/M00 A3017 RMK A01 T01021001  RH  049%=      5-min Rain = 0
KLA1 160215Z 03001KT 10/00 A3017 RMK A01 T01020001  RH  050%=      5-min Rain = 0
KLA1 160216Z 06001KT 10/01 A3018 RMK A01 T01010008  RH  052%=      5-min Rain = 0
KLA1 160217Z 05001KT 10/01 A3018 RMK A01 T00980009  RH  054%=      5-min Rain = 0
KLA1 160218Z 13000KT 10/02 A3018 RMK A01 T00950015  RH  058%=      5-min Rain = 0
KLA1 160219Z 21000KT 09/02 A3018 RMK A01 T00920020  RH  061%=      5-min Rain = 0
KLA1 160220Z 23001KT 09/02 A3018 RMK A01 T00900020  RH  061%=      5-min Rain = 0
KLA1 160221Z 21000KT 09/02 A3018 RMK A01 T00890016  RH  060%=      5-min Rain = 0
KLA1 160222Z 23001KT 09/02 A3018 RMK A01 T00890015  RH  060%=      5-min Rain = 0
KLA1 160223Z 22002KT 09/02 A3018 RMK A01 T00880016  RH  060%=      5-min Rain = 0
KLA1 160224Z 22003KT 09/02 A3018 RMK A01 T00870016  RH  061%=      5-min Rain = 0
KLA1 160225Z 22002KT 09/01 A3018 RMK A01 T00860014  RH  061%=      5-min Rain = 0
KLA1 160226Z 22002KT 09/01 A3018 RMK A01 T00860014  RH  060%=      5-min Rain = 0
KLA1 160227Z 22001KT 09/01 A3018 RMK A01 T00860013  RH  060%=      5-min Rain = 0
KLA1 160228Z 23001KT 09/01 A3018 RMK A01 T00870011  RH  059%=      5-min Rain = 0
KLA1 160229Z 30001KT 09/02 A3018 RMK A01 T00880015  RH  060%=      5-min Rain = 0
KLA1 160230Z 29001KT 09/02 A3018 RMK A01 T00870019  RH  062%=      5-min Rain = 0
KLA1 160231Z 23001KT 09/02 A3018 RMK A01 T00860018  RH  062%=      5-min Rain = 0
KLA1 160232Z 23001KT 09/02 A3018 RMK A01 T00860016  RH  062%=      5-min Rain = 0
KLA1 160233Z 24001KT 09/02 A3018 RMK A01 T00860015  RH  061%=      5-min Rain = 0
KLA1 160234Z 24001KT 09/01 A3018 RMK A01 T00860012  RH  060%=      5-min Rain = 0
KLA1 160235Z 27001KT 09/01 A3018 RMK A01 T00870012  RH  059%=      5-min Rain = 0
KLA1 160236Z 28002KT 09/02 A3018 RMK A01 T00870016  RH  061%=      5-min Rain = 0
KLA1 160237Z 27001KT 09/02 A3018 RMK A01 T00870019  RH  063%=      5-min Rain = 0
KLA1 160238Z 16001KT 09/02 A3018 RMK A01 T00860020  RH  063%=      5-min Rain = 0
KLA1 160239Z 14001KT 09/02 A3018 RMK A01 T00850018  RH  063%=      5-min Rain = 0
KLA1 160240Z 00000KT 09/01 A3018 RMK A01 T00850014  RH  061%=      5-min Rain = 0
KLA1 160241Z 00000KT 09/01 A3018 RMK A01 T00850014  RH  061%=      5-min Rain = 0
KLA1 160242Z 17002KT 09/02 A3018 RMK A01 T00850017  RH  062%=      5-min Rain = 0
KLA1 160243Z 22001KT 09/02 A3018 RMK A01 T00850015  RH  061%=      5-min Rain = 0
KLA1 160244Z 29002KT 09/01 A3018 RMK A01 T00860014  RH  060%=      5-min Rain = 0
KLA1 160245Z 29002KT 09/01 A3018 RMK A01 T00860012  RH  060%=      5-min Rain = 0
KLA1 160246Z 33000KT 09/02 A3018 RMK A01 T00870015  RH  061%=      5-min Rain = 0
KLA1 160247Z 11000KT 09/02 A3018 RMK A01 T00850017  RH  062%=      5-min Rain = 0
KLA1 160248Z 00000KT 08/02 A3018 RMK A01 T00840017  RH  063%=      5-min Rain = 0
KLA1 160249Z 00000KT 08/02 A3018 RMK A01 T00840017  RH  063%=      5-min Rain = 0
KLA1 160250Z 07000KT 08/02 A3019 RMK A01 T00830017  RH  063%=      5-min Rain = 0
KLA1 160251Z 05000KT 08/01 A3018 RMK A01 T00820014  RH  062%=      5-min Rain = 0
KLA1 160252Z 06001KT 08/01 A3018 RMK A01 T00820014  RH  062%=      5-min Rain = 0
KLA1 160253Z 06001KT 08/01 A3018 RMK A01 T00820013  RH  062%=      5-min Rain = 0
KLA1 160254Z 06000KT 08/01 A3018 RMK A01 T00830014  RH  062%=      5-min Rain = 0
KLA1 160255Z 06000KT 08/02 A3018 RMK A01 T00830016  RH  063%=      5-min Rain = 0
KLA1 160256Z 01001KT 08/02 A3018 RMK A01 T00820015  RH  062%=      5-min Rain = 0
KLA1 160257Z 04002KT 08/01 A3018 RMK A01 T00820014  RH  062%=      5-min Rain = 0
KLA1 160258Z 05002KT 08/02 A3018 RMK A01 T00820015  RH  062%=      5-min Rain = 0
KLA1 160259Z 03001KT 08/01 A3018 RMK A01 T00820014  RH  062%=      5-min Rain = 0
KLA1 160300Z 02002KT 08/01 A3018 RMK A01 T00830013  RH  061%=      5-min Rain = 0
KLA1 160301Z 02002KT 08/01 A3018 RMK A01 T00820013  RH  062%=      5-min Rain = 0
KLA1 160302Z 02001KT 08/02 A3018 RMK A01 T00820015  RH  063%=      5-min Rain = 0
KLA1 160303Z 02002KT 08/02 A3018 RMK A01 T00810016  RH  064%=      5-min Rain = 0
KLA1 160304Z 02003KT 08/02 A3018 RMK A01 T00790016  RH  064%=      5-min Rain = 0
KLA1 160305Z 02002KT 08/02 A3018 RMK A01 T00790015  RH  064%=      5-min Rain = 0
KLA1 160306Z 02003KT 08/01 A3018 RMK A01 T00800014  RH  063%=      5-min Rain = 0
KLA1 160307Z 05003KT 08/01 A3018 RMK A01 T00800014  RH  063%=      5-min Rain = 0
KLA1 160308Z 05001KT 08/01 A3018 RMK A01 T00810013  RH  062%=      5-min Rain = 0
KLA1 160309Z 03002KT 08/01 A3018 RMK A01 T00810013  RH  062%=      5-min Rain = 0
KLA1 160310Z 03002KT 08/01 A3018 RMK A01 T00810013  RH  062%=      5-min Rain = 0
KLA1 160311Z 03002KT 08/01 A3018 RMK A01 T00810014  RH  063%=      5-min Rain = 0
KLA1 160312Z 03002KT 08/02 A3018 RMK A01 T00800015  RH  063%=      5-min Rain = 0
KLA1 160313Z 02003KT 08/01 A3018 RMK A01 T00790014  RH  063%=      5-min Rain = 0
KLA1 160314Z 03002KT 08/01 A3018 RMK A01 T00780014  RH  064%=      5-min Rain = 0
KLA1 160315Z 02002KT 08/01 A3018 RMK A01 T00770013  RH  064%=      5-min Rain = 0
KLA1 160316Z 00001KT 08/01 A3018 RMK A01 T00780012  RH  063%=      5-min Rain = 0
KLA1 160317Z 01002KT 08/01 A3018 RMK A01 T00790012  RH  063%=      5-min Rain = 0
KLA1 160318Z 01003KT 08/01 A3018 RMK A01 T00790014  RH  063%=      5-min Rain = 0
KLA1 160319Z 34001KT 08/01 A3018 RMK A01 T00790012  RH  063%=      5-min Rain = 0
KLA1 160320Z 34000KT 08/01 A3018 RMK A01 T00790012  RH  062%=      5-min Rain = 0
KLA1 160321Z 33001KT 08/01 A3018 RMK A01 T00790014  RH  064%=      5-min Rain = 0
KLA1 160322Z 26001KT 08/01 A3018 RMK A01 T00790012  RH  063%=      5-min Rain = 0
KLA1 160323Z 26001KT 08/01 A3018 RMK A01 T00800009  RH  061%=      5-min Rain = 0
KLA1 160324Z 25001KT 08/01 A3018 RMK A01 T00810012  RH  062%=      5-min Rain = 0
KLA1 160325Z 25000KT 08/02 A3018 RMK A01 T00810015  RH  063%=      5-min Rain = 0
KLA1 160326Z 00000KT 08/02 A3018 RMK A01 T00790015  RH  064%=      5-min Rain = 0
KLA1 160327Z 00000KT 08/01 A3018 RMK A01 T00790011  RH  062%=      5-min Rain = 0
KLA1 160328Z 00000KT 08/01 A3018 RMK A01 T00800010  RH  061%=      5-min Rain = 0
KLA1 160329Z 03001KT 08/01 A3018 RMK A01 T00790013  RH  063%=      5-min Rain = 0
KLA1 160330Z 06000KT 08/01 A3018 RMK A01 T00790009  RH  061%=      5-min Rain = 0
KLA1 160331Z 00000KT 08/01 A3018 RMK A01 T00790010  RH  062%=      5-min Rain = 0
KLA1 160332Z 01001KT 08/01 A3018 RMK A01 T00790010  RH  062%=      5-min Rain = 0
KLA1 160333Z 02002KT 08/01 A3018 RMK A01 T00790009  RH  061%=      5-min Rain = 0
KLA1 160334Z 04000KT 08/01 A3018 RMK A01 T00780007  RH  061%=      5-min Rain = 0
KLA1 160335Z 00001KT 08/01 A3018 RMK A01 T00790007  RH  060%=      5-min Rain = 0
KLA1 160336Z 36002KT 08/01 A3018 RMK A01 T00790008  RH  061%=      5-min Rain = 0
KLA1 160337Z 01002KT 08/01 A3018 RMK A01 T00790010  RH  062%=      5-min Rain = 0
KLA1 160338Z 02001KT 08/01 A3018 RMK A01 T00770011  RH  063%=      5-min Rain = 0
KLA1 160339Z 03002KT 08/01 A3018 RMK A01 T00750010  RH  063%=      5-min Rain = 0
KLA1 160340Z 02001KT 07/01 A3018 RMK A01 T00740008  RH  063%=      5-min Rain = 0
KLA1 160341Z 03000KT 07/01 A3018 RMK A01 T00740009  RH  063%=      5-min Rain = 0
KLA1 160342Z 02002KT 07/01 A3018 RMK A01 T00730011  RH  065%=      5-min Rain = 0
KLA1 160343Z 01001KT 07/01 A3018 RMK A01 T00720009  RH  064%=      5-min Rain = 0
KLA1 160344Z 01001KT 07/01 A3018 RMK A01 T00720009  RH  064%=      5-min Rain = 0
KLA1 160345Z 35000KT 07/01 A3018 RMK A01 T00730008  RH  063%=      5-min Rain = 0
KLA1 160346Z 34000KT 07/01 A3018 RMK A01 T00730009  RH  064%=      5-min Rain = 0
KLA1 160347Z 35000KT 07/01 A3018 RMK A01 T00710010  RH  065%=      5-min Rain = 0
KLA1 160348Z 01000KT 07/01 A3018 RMK A01 T00700009  RH  065%=      5-min Rain = 0
KLA1 160349Z 01000KT 07/01 A3018 RMK A01 T00710010  RH  065%=      5-min Rain = 0
KLA1 160350Z 01000KT 07/01 A3018 RMK A01 T00710012  RH  066%=      5-min Rain = 0
KLA1 160351Z 00000KT 07/01 A3018 RMK A01 T00690013  RH  068%=      5-min Rain = 0
KLA1 160352Z 00000KT 07/01 A3018 RMK A01 T00670012  RH  068%=      5-min Rain = 0
KLA1 160353Z 00000KT 07/01 A3018 RMK A01 T00660011  RH  068%=      5-min Rain = 0
KLA1 160354Z 21000KT 07/01 A3018 RMK A01 T00650011  RH  069%=      5-min Rain = 0
KLA1 160355Z 20001KT 06/01 A3018 RMK A01 T00620014  RH  071%=      5-min Rain = 0
KLA1 160356Z 19001KT 06/02 A3018 RMK A01 T00600016  RH  073%=      5-min Rain = 0
KLA1 160357Z 17001KT 06/02 A3018 RMK A01 T00580016  RH  074%=      5-min Rain = 0
KLA1 160358Z 16002KT 06/01 A3018 RMK A01 T00560014  RH  075%=      5-min Rain = 0
KLA1 160359Z 12001KT 05/01 A3018 RMK A01 T00540013  RH  075%=      5-min Rain = 0
KLA1 160400Z 07000KT 05/01 A3018 RMK A01 T00520011  RH  074%=      5-min Rain = 0
KLA1 160401Z 07001KT 05/01 A3018 RMK A01 T00510010  RH  075%=      5-min Rain = 0
KLA1 160402Z 08001KT 05/01 A3018 RMK A01 T00520012  RH  075%=      5-min Rain = 0
KLA1 160403Z 09002KT 05/01 A3018 RMK A01 T00530014  RH  076%=      5-min Rain = 0
KLA1 160404Z 11001KT 05/01 A3018 RMK A01 T00520014  RH  076%=      5-min Rain = 0
KLA1 160405Z 13001KT 05/01 A3018 RMK A01 T00520014  RH  077%=      5-min Rain = 0
KLA1 160406Z 13000KT 05/01 A3018 RMK A01 T00520014  RH  077%=      5-min Rain = 0
KLA1 160407Z 04000KT 05/02 A3018 RMK A01 T00530015  RH  077%=      5-min Rain = 0
KLA1 160408Z 03000KT 06/02 A3018 RMK A01 T00550015  RH  075%=      5-min Rain = 0
KLA1 160409Z 00000KT 06/01 A3018 RMK A01 T00560014  RH  074%=      5-min Rain = 0
KLA1 160410Z 06000KT 06/01 A3018 RMK A01 T00570014  RH  074%=      5-min Rain = 0
KLA1 160411Z 06000KT 06/01 A3018 RMK A01 T00580013  RH  073%=      5-min Rain = 0
KLA1 160412Z 07000KT 06/01 A3018 RMK A01 T00590012  RH  072%=      5-min Rain = 0
KLA1 160413Z 07001KT 06/01 A3018 RMK A01 T00600012  RH  071%=      5-min Rain = 0
KLA1 160414Z 06001KT 06/01 A3018 RMK A01 T00580012  RH  072%=      5-min Rain = 0
KLA1 160415Z 07001KT 06/01 A3018 RMK A01 T00560013  RH  074%=      5-min Rain = 0
KLA1 160416Z 07001KT 05/01 A3018 RMK A01 T00530012  RH  075%=      5-min Rain = 0
KLA1 160417Z 08001KT 05/01 A3018 RMK A01 T00520011  RH  075%=      5-min Rain = 0
KLA1 160418Z 08001KT 05/01 A3018 RMK A01 T00510011  RH  075%=      5-min Rain = 0
KLA1 160419Z 07001KT 05/01 A3018 RMK A01 T00510011  RH  075%=      5-min Rain = 0
KLA1 160420Z 05001KT 05/01 A3018 RMK A01 T00500011  RH  076%=      5-min Rain = 0
KLA1 160421Z 04001KT 05/01 A3018 RMK A01 T00500010  RH  076%=      5-min Rain = 0
KLA1 160422Z 03001KT 05/01 A3018 RMK A01 T00490010  RH  076%=      5-min Rain = 0
KLA1 160423Z 03001KT 05/01 A3018 RMK A01 T00480009  RH  076%=      5-min Rain = 0
KLA1 160424Z 03001KT 05/01 A3018 RMK A01 T00470009  RH  076%=      5-min Rain = 0
KLA1 160425Z 05001KT 05/01 A3018 RMK A01 T00450010  RH  078%=      5-min Rain = 0
KLA1 160426Z 08001KT 04/01 A3018 RMK A01 T00440008  RH  078%=      5-min Rain = 0
KLA1 160427Z 09001KT 04/01 A3018 RMK A01 T00420008  RH  078%=      5-min Rain = 0
KLA1 160428Z 07001KT 04/01 A3018 RMK A01 T00420009  RH  079%=      5-min Rain = 0
KLA1 160429Z 06000KT 04/01 A3018 RMK A01 T00420008  RH  078%=      5-min Rain = 0
KLA1 160430Z 04001KT 04/01 A3018 RMK A01 T00420006  RH  077%=      5-min Rain = 0
KLA1 160431Z 06002KT 04/01 A3018 RMK A01 T00420006  RH  077%=      5-min Rain = 0
KLA1 160432Z 06003KT 04/01 A3018 RMK A01 T00420006  RH  078%=      5-min Rain = 0
KLA1 160433Z 06002KT 04/01 A3018 RMK A01 T00410006  RH  078%=      5-min Rain = 0
KLA1 160434Z 08001KT 04/01 A3018 RMK A01 T00420007  RH  078%=      5-min Rain = 0
KLA1 160435Z 09001KT 04/01 A3018 RMK A01 T00440007  RH  077%=      5-min Rain = 0
KLA1 160436Z 09001KT 05/01 A3018 RMK A01 T00450008  RH  077%=      5-min Rain = 0
KLA1 160437Z 08001KT 04/01 A3018 RMK A01 T00440008  RH  077%=      5-min Rain = 0
KLA1 160438Z 08000KT 04/01 A3018 RMK A01 T00440008  RH  078%=      5-min Rain = 0
KLA1 160439Z 08000KT 05/01 A3018 RMK A01 T00450009  RH  078%=      5-min Rain = 0
KLA1 160440Z 05001KT 05/01 A3018 RMK A01 T00460010  RH  077%=      5-min Rain = 0
KLA1 160441Z 05001KT 05/01 A3018 RMK A01 T00470010  RH  077%=      5-min Rain = 0
KLA1 160442Z 07000KT 05/01 A3018 RMK A01 T00490010  RH  076%=      5-min Rain = 0
KLA1 160443Z 08000KT 05/01 A3018 RMK A01 T00510009  RH  074%=      5-min Rain = 0
KLA1 160444Z 09000KT 05/01 A3018 RMK A01 T00520009  RH  074%=      5-min Rain = 0
KLA1 160445Z 11000KT 05/01 A3018 RMK A01 T00530009  RH  073%=      5-min Rain = 0
KLA1 160446Z 09001KT 05/01 A3018 RMK A01 T00540009  RH  073%=      5-min Rain = 0
KLA1 160447Z 10001KT 05/01 A3018 RMK A01 T00540009  RH  072%=      5-min Rain = 0
KLA1 160448Z 11002KT 05/01 A3018 RMK A01 T00530008  RH  072%=      5-min Rain = 0
KLA1 160449Z 11001KT 06/01 A3018 RMK A01 T00550009  RH  072%=      5-min Rain = 0
KLA1 160450Z 13001KT 06/01 A3018 RMK A01 T00570010  RH  072%=      5-min Rain = 0
KLA1 160451Z 12002KT 06/01 A3018 RMK A01 T00570010  RH  072%=      5-min Rain = 0
KLA1 160452Z 13001KT 06/01 A3018 RMK A01 T00560010  RH  072%=      5-min Rain = 0
KLA1 160453Z 13001KT 05/01 A3018 RMK A01 T00540009  RH  073%=      5-min Rain = 0
KLA1 160454Z 12001KT 05/01 A3018 RMK A01 T00520010  RH  074%=      5-min Rain = 0
KLA1 160455Z 12001KT 05/01 A3018 RMK A01 T00520011  RH  075%=      5-min Rain = 0
KLA1 160456Z 11001KT 05/01 A3018 RMK A01 T00510011  RH  075%=      5-min Rain = 0
KLA1 160457Z 13001KT 05/01 A3018 RMK A01 T00510012  RH  076%=      5-min Rain = 0
KLA1 160458Z 13001KT 05/01 A3018 RMK A01 T00510012  RH  076%=      5-min Rain = 0
KLA1 160459Z 12001KT 05/01 A3018 RMK A01 T00500012  RH  076%=      5-min Rain = 0
KLA1 160500Z 12001KT 05/01 A3018 RMK A01 T00490013  RH  077%=      5-min Rain = 0
KLA1 160501Z 12001KT 05/01 A3018 RMK A01 T00480013  RH  078%=      5-min Rain = 0
KLA1 160502Z 12000KT 05/01 A3018 RMK A01 T00480013  RH  078%=      5-min Rain = 0
KLA1 160503Z 10000KT 05/01 A3018 RMK A01 T00480012  RH  078%=      5-min Rain = 0
KLA1 160504Z 07001KT 05/01 A3018 RMK A01 T00480013  RH  078%=      5-min Rain = 0
KLA1 160505Z 05001KT 05/01 A3018 RMK A01 T00490013  RH  078%=      5-min Rain = 0
KLA1 160506Z 06001KT 05/01 A3018 RMK A01 T00480013  RH  078%=      5-min Rain = 0
KLA1 160507Z 05001KT 05/01 A3018 RMK A01 T00470011  RH  077%=      5-min Rain = 0
KLA1 160508Z 04002KT 05/01 A3018 RMK A01 T00460010  RH  077%=      5-min Rain = 0
KLA1 160509Z 04002KT 05/01 A3018 RMK A01 T00450008  RH  077%=      5-min Rain = 0
KLA1 160510Z 03002KT 05/01 A3018 RMK A01 T00450008  RH  077%=      5-min Rain = 0
KLA1 160511Z 03002KT 05/01 A3018 RMK A01 T00450008  RH  077%=      5-min Rain = 0
KLA1 160512Z 03002KT 05/01 A3018 RMK A01 T00460008  RH  077%=      5-min Rain = 0
KLA1 160513Z 02003KT 05/01 A3017 RMK A01 T00470008  RH  076%=      5-min Rain = 0
KLA1 160514Z 02003KT 05/01 A3017 RMK A01 T00480008  RH  075%=      5-min Rain = 0
KLA1 160515Z 02003KT 05/01 A3017 RMK A01 T00490008  RH  075%=      5-min Rain = 0
KLA1 160516Z 02002KT 05/01 A3017 RMK A01 T00500008  RH  074%=      5-min Rain = 0
KLA1 160517Z 02002KT 05/01 A3017 RMK A01 T00500007  RH  074%=      5-min Rain = 0
KLA1 160518Z 01002KT 05/01 A3017 RMK A01 T00510008  RH  074%=      5-min Rain = 0
KLA1 160519Z 01002KT 05/01 A3017 RMK A01 T00510007  RH  073%=      5-min Rain = 0
KLA1 160520Z 36002KT 05/01 A3017 RMK A01 T00520008  RH  073%=      5-min Rain = 0
KLA1 160521Z 34002KT 05/01 A3017 RMK A01 T00530010  RH  074%=      5-min Rain = 0
KLA1 160522Z 32001KT 05/01 A3017 RMK A01 T00520013  RH  076%=      5-min Rain = 0
KLA1 160523Z 28001KT 05/01 A3017 RMK A01 T00520013  RH  076%=      5-min Rain = 0
KLA1 160524Z 27001KT 05/01 A3017 RMK A01 T00520011  RH  075%=      5-min Rain = 0
KLA1 160525Z 29001KT 05/01 A3017 RMK A01 T00520013  RH  076%=      5-min Rain = 0
KLA1 160526Z 26001KT 05/01 A3017 RMK A01 T00520014  RH  077%=      5-min Rain = 0
KLA1 160527Z 25001KT 05/01 A3017 RMK A01 T00500013  RH  077%=      5-min Rain = 0
KLA1 160528Z 23000KT 05/01 A3017 RMK A01 T00480012  RH  078%=      5-min Rain = 0
KLA1 160529Z 23000KT 04/01 A3017 RMK A01 T00440010  RH  078%=      5-min Rain = 0
KLA1 160530Z 00000KT 04/01 A3017 RMK A01 T00420009  RH  079%=      5-min Rain = 0
KLA1 160531Z 00000KT 04/01 A3017 RMK A01 T00400009  RH  080%=      5-min Rain = 0
KLA1 160532Z 00000KT 04/01 A3017 RMK A01 T00400010  RH  081%=      5-min Rain = 0
KLA1 160533Z 00000KT 04/01 A3017 RMK A01 T00390010  RH  081%=      5-min Rain = 0
KLA1 160534Z 00000KT 04/01 A3017 RMK A01 T00390010  RH  081%=      5-min Rain = 0
KLA1 160535Z 00000KT 04/01 A3017 RMK A01 T00380009  RH  081%=      5-min Rain = 0
KLA1 160536Z 00000KT 04/01 A3017 RMK A01 T00370009  RH  082%=      5-min Rain = 0
KLA1 160537Z 00000KT 04/01 A3017 RMK A01 T00370010  RH  082%=      5-min Rain = 0
KLA1 160538Z 00000KT 04/01 A3017 RMK A01 T00370011  RH  083%=      5-min Rain = 0
KLA1 160539Z 17000KT 04/01 A3017 RMK A01 T00370011  RH  083%=      5-min Rain = 0
KLA1 160540Z 00000KT 04/01 A3017 RMK A01 T00360009  RH  082%=      5-min Rain = 0
KLA1 160541Z 00000KT 04/01 A3017 RMK A01 T00350007  RH  082%=      5-min Rain = 0
KLA1 160542Z 16001KT 03/01 A3017 RMK A01 T00330005  RH  082%=      5-min Rain = 0
KLA1 160543Z 14001KT 03/00 A3017 RMK A01 T00310004  RH  083%=      5-min Rain = 0
KLA1 160544Z 13001KT 03/00 A3017 RMK A01 T00290003  RH  083%=      5-min Rain = 0
KLA1 160545Z 13001KT 03/00 A3017 RMK A01 T00270003  RH  084%=      5-min Rain = 0
KLA1 160546Z 13001KT 03/01 A3017 RMK A01 T00270005  RH  085%=      5-min Rain = 0
KLA1 160547Z 12001KT 03/01 A3017 RMK A01 T00280007  RH  086%=      5-min Rain = 0
KLA1 160548Z 12000KT 03/01 A3017 RMK A01 T00280008  RH  087%=      5-min Rain = 0
KLA1 160549Z 11000KT 03/01 A3017 RMK A01 T00290009  RH  087%=      5-min Rain = 0
KLA1 160550Z 10001KT 03/01 A3017 RMK A01 T00280009  RH  087%=      5-min Rain = 0
KLA1 160551Z 10001KT 03/01 A3017 RMK A01 T00290009  RH  087%=      5-min Rain = 0
KLA1 160552Z 10001KT 03/01 A3017 RMK A01 T00290009  RH  087%=      5-min Rain = 0
KLA1 160553Z 08001KT 03/01 A3017 RMK A01 T00290009  RH  087%=      5-min Rain = 0
KLA1 160554Z 05001KT 03/01 A3017 RMK A01 T00300009  RH  086%=      5-min Rain = 0
KLA1 160555Z 06002KT 03/01 A3017 RMK A01 T00310009  RH  085%=      5-min Rain = 0
KLA1 160556Z 07001KT 03/01 A3017 RMK A01 T00310008  RH  085%=      5-min Rain = 0
KLA1 160557Z 06001KT 03/01 A3017 RMK A01 T00310008  RH  085%=      5-min Rain = 0
KLA1 160558Z 07001KT 03/01 A3017 RMK A01 T00320009  RH  085%=      5-min Rain = 0
KLA1 160559Z 09001KT 03/01 A3017 RMK A01 T00320009  RH  085%=      5-min Rain = 0

Page generated in 0.1407 seconds.